<?xml version="1.0" encoding="UTF-8" standalone="no" ?>
<gpx xmlns="http://www.topografix.com/GPX/1/1" xmlns:xsi="http://www.w3.org/2001/XMLSchema-instance" xsi:schemaLocation="http://www.topografix.com/GPX/1/1 http://www.topografix.com/GPX/1/1/gpx.xsd" version="1.1" creator="VisuGPX - https://www.visugpx.com">
  <metadata>
    <name>Las de Gréziolles</name>
    <desc><![CDATA[Très beaux panoramas]]></desc>
  </metadata>
  <trk>
    <name><![CDATA[Barage La Mongie]]></name>
    <trkseg>
      <trkpt lat="42.91699" lon="0.20919">
        <ele>1425</ele>
        <time>2014-09-03T05:56:04.000Z</time>
      </trkpt>
      <trkpt lat="42.91689" lon="0.2094">
        <ele>1423.1999511719</ele>
        <time>2014-09-03T05:56:22.000Z</time>
      </trkpt>
      <trkpt lat="42.91671" lon="0.20944">
        <ele>1425.4000244141</ele>
        <time>2014-09-03T05:56:41.000Z</time>
      </trkpt>
      <trkpt lat="42.91657" lon="0.20931">
        <ele>1430.4000244141</ele>
        <time>2014-09-03T05:57:29.000Z</time>
      </trkpt>
      <trkpt lat="42.9166" lon="0.20942">
        <ele>1428.1999511719</ele>
        <time>2014-09-03T05:58:17.000Z</time>
      </trkpt>
      <trkpt lat="42.91652" lon="0.20953">
        <ele>1430</ele>
        <time>2014-09-03T05:58:39.000Z</time>
      </trkpt>
      <trkpt lat="42.9165" lon="0.20952">
        <ele>1430.8000488281</ele>
        <time>2014-09-03T05:58:46.000Z</time>
      </trkpt>
      <trkpt lat="42.91642" lon="0.20968">
        <ele>1433.5999755859</ele>
        <time>2014-09-03T05:59:43.000Z</time>
      </trkpt>
      <trkpt lat="42.91635" lon="0.20978">
        <ele>1436.4000244141</ele>
        <time>2014-09-03T05:59:50.000Z</time>
      </trkpt>
      <trkpt lat="42.91628" lon="0.20992">
        <ele>1439</ele>
        <time>2014-09-03T06:00:08.000Z</time>
      </trkpt>
      <trkpt lat="42.91623" lon="0.21004">
        <ele>1440.5999755859</ele>
        <time>2014-09-03T06:00:14.000Z</time>
      </trkpt>
      <trkpt lat="42.91626" lon="0.2101">
        <ele>1439.4000244141</ele>
        <time>2014-09-03T06:00:22.000Z</time>
      </trkpt>
      <trkpt lat="42.91615" lon="0.21026">
        <ele>1443</ele>
        <time>2014-09-03T06:00:45.000Z</time>
      </trkpt>
      <trkpt lat="42.91625" lon="0.21039">
        <ele>1439</ele>
        <time>2014-09-03T06:00:58.000Z</time>
      </trkpt>
      <trkpt lat="42.91625" lon="0.2106">
        <ele>1441.5999755859</ele>
        <time>2014-09-03T06:01:31.000Z</time>
      </trkpt>
      <trkpt lat="42.91639" lon="0.21078">
        <ele>1439.8000488281</ele>
        <time>2014-09-03T06:01:49.000Z</time>
      </trkpt>
      <trkpt lat="42.91641" lon="0.21086">
        <ele>1440.8000488281</ele>
        <time>2014-09-03T06:01:56.000Z</time>
      </trkpt>
      <trkpt lat="42.9164" lon="0.21106">
        <ele>1445</ele>
        <time>2014-09-03T06:02:13.000Z</time>
      </trkpt>
      <trkpt lat="42.91639" lon="0.2111">
        <ele>1446.1999511719</ele>
        <time>2014-09-03T06:02:18.000Z</time>
      </trkpt>
      <trkpt lat="42.91637" lon="0.21126">
        <ele>1450.4000244141</ele>
        <time>2014-09-03T06:02:43.000Z</time>
      </trkpt>
      <trkpt lat="42.91631" lon="0.21131">
        <ele>1454.1999511719</ele>
        <time>2014-09-03T06:02:59.000Z</time>
      </trkpt>
      <trkpt lat="42.91627" lon="0.2115">
        <ele>1463.4000244141</ele>
        <time>2014-09-03T06:03:19.000Z</time>
      </trkpt>
      <trkpt lat="42.91618" lon="0.21168">
        <ele>1472.8000488281</ele>
        <time>2014-09-03T06:03:38.000Z</time>
      </trkpt>
      <trkpt lat="42.91605" lon="0.21176">
        <ele>1478.5999755859</ele>
        <time>2014-09-03T06:03:41.000Z</time>
      </trkpt>
      <trkpt lat="42.91587" lon="0.21188">
        <ele>1488.5999755859</ele>
        <time>2014-09-03T06:03:48.000Z</time>
      </trkpt>
      <trkpt lat="42.91584" lon="0.21189">
        <ele>1491.4000244141</ele>
        <time>2014-09-03T06:03:51.000Z</time>
      </trkpt>
      <trkpt lat="42.91584" lon="0.2119">
        <ele>1491.8000488281</ele>
        <time>2014-09-03T06:03:52.000Z</time>
      </trkpt>
      <trkpt lat="42.91573" lon="0.21199">
        <ele>1502.5999755859</ele>
        <time>2014-09-03T06:03:58.000Z</time>
      </trkpt>
      <trkpt lat="42.91573" lon="0.21208">
        <ele>1504.8000488281</ele>
        <time>2014-09-03T06:04:07.000Z</time>
      </trkpt>
      <trkpt lat="42.91574" lon="0.21208">
        <ele>1504</ele>
        <time>2014-09-03T06:04:08.000Z</time>
      </trkpt>
      <trkpt lat="42.91577" lon="0.21211">
        <ele>1502</ele>
        <time>2014-09-03T06:04:12.000Z</time>
      </trkpt>
      <trkpt lat="42.91576" lon="0.21215">
        <ele>1504.5999755859</ele>
        <time>2014-09-03T06:04:17.000Z</time>
      </trkpt>
      <trkpt lat="42.91572" lon="0.21236">
        <ele>1515.1999511719</ele>
        <time>2014-09-03T06:04:40.000Z</time>
      </trkpt>
      <trkpt lat="42.91562" lon="0.21247">
        <ele>1526.1999511719</ele>
        <time>2014-09-03T06:05:00.000Z</time>
      </trkpt>
      <trkpt lat="42.91567" lon="0.21272">
        <ele>1532.5999755859</ele>
        <time>2014-09-03T06:05:20.000Z</time>
      </trkpt>
      <trkpt lat="42.91574" lon="0.21294">
        <ele>1534.5999755859</ele>
        <time>2014-09-03T06:05:43.000Z</time>
      </trkpt>
      <trkpt lat="42.91587" lon="0.21314">
        <ele>1530.5999755859</ele>
        <time>2014-09-03T06:06:04.000Z</time>
      </trkpt>
      <trkpt lat="42.91589" lon="0.21337">
        <ele>1534.5999755859</ele>
        <time>2014-09-03T06:06:25.000Z</time>
      </trkpt>
      <trkpt lat="42.9159" lon="0.21351">
        <ele>1536.5999755859</ele>
        <time>2014-09-03T06:07:14.000Z</time>
      </trkpt>
      <trkpt lat="42.91591" lon="0.21376">
        <ele>1541.4000244141</ele>
        <time>2014-09-03T06:07:33.000Z</time>
      </trkpt>
      <trkpt lat="42.91591" lon="0.214">
        <ele>1543.4000244141</ele>
        <time>2014-09-03T06:07:54.000Z</time>
      </trkpt>
      <trkpt lat="42.9159" lon="0.21405">
        <ele>1544</ele>
        <time>2014-09-03T06:07:59.000Z</time>
      </trkpt>
      <trkpt lat="42.91578" lon="0.21425">
        <ele>1553.1999511719</ele>
        <time>2014-09-03T06:08:21.000Z</time>
      </trkpt>
      <trkpt lat="42.9157" lon="0.21447">
        <ele>1559.4000244141</ele>
        <time>2014-09-03T06:08:38.000Z</time>
      </trkpt>
      <trkpt lat="42.91567" lon="0.21471">
        <ele>1558.4000244141</ele>
        <time>2014-09-03T06:09:02.000Z</time>
      </trkpt>
      <trkpt lat="42.9156" lon="0.21495">
        <ele>1560.4000244141</ele>
        <time>2014-09-03T06:09:19.000Z</time>
      </trkpt>
      <trkpt lat="42.91551" lon="0.21518">
        <ele>1561.4000244141</ele>
        <time>2014-09-03T06:09:34.000Z</time>
      </trkpt>
      <trkpt lat="42.91545" lon="0.21541">
        <ele>1558.1999511719</ele>
        <time>2014-09-03T06:09:48.000Z</time>
      </trkpt>
      <trkpt lat="42.91538" lon="0.21564">
        <ele>1558.5999755859</ele>
        <time>2014-09-03T06:09:58.000Z</time>
      </trkpt>
      <trkpt lat="42.91533" lon="0.21587">
        <ele>1556.8000488281</ele>
        <time>2014-09-03T06:10:08.000Z</time>
      </trkpt>
      <trkpt lat="42.91522" lon="0.2161">
        <ele>1553.5999755859</ele>
        <time>2014-09-03T06:10:18.000Z</time>
      </trkpt>
      <trkpt lat="42.91507" lon="0.21626">
        <ele>1552.5999755859</ele>
        <time>2014-09-03T06:10:27.000Z</time>
      </trkpt>
      <trkpt lat="42.91491" lon="0.21641">
        <ele>1554.5999755859</ele>
        <time>2014-09-03T06:10:36.000Z</time>
      </trkpt>
      <trkpt lat="42.91476" lon="0.21651">
        <ele>1557.1999511719</ele>
        <time>2014-09-03T06:10:46.000Z</time>
      </trkpt>
      <trkpt lat="42.91461" lon="0.21667">
        <ele>1559.8000488281</ele>
        <time>2014-09-03T06:10:56.000Z</time>
      </trkpt>
      <trkpt lat="42.91443" lon="0.21675">
        <ele>1560.1999511719</ele>
        <time>2014-09-03T06:11:06.000Z</time>
      </trkpt>
      <trkpt lat="42.9143" lon="0.21675">
        <ele>1561</ele>
        <time>2014-09-03T06:11:18.000Z</time>
      </trkpt>
      <trkpt lat="42.91418" lon="0.21675">
        <ele>1561</ele>
        <time>2014-09-03T06:11:39.000Z</time>
      </trkpt>
      <trkpt lat="42.91405" lon="0.21676">
        <ele>1560.5999755859</ele>
        <time>2014-09-03T06:11:49.000Z</time>
      </trkpt>
      <trkpt lat="42.91397" lon="0.21675">
        <ele>1560.1999511719</ele>
        <time>2014-09-03T06:11:55.000Z</time>
      </trkpt>
      <trkpt lat="42.91379" lon="0.2167">
        <ele>1560.1999511719</ele>
        <time>2014-09-03T06:12:05.000Z</time>
      </trkpt>
      <trkpt lat="42.91362" lon="0.21661">
        <ele>1560.8000488281</ele>
        <time>2014-09-03T06:12:15.000Z</time>
      </trkpt>
      <trkpt lat="42.91345" lon="0.2165">
        <ele>1561.1999511719</ele>
        <time>2014-09-03T06:12:25.000Z</time>
      </trkpt>
      <trkpt lat="42.91332" lon="0.21641">
        <ele>1562.1999511719</ele>
        <time>2014-09-03T06:12:32.000Z</time>
      </trkpt>
      <trkpt lat="42.91315" lon="0.21632">
        <ele>1564</ele>
        <time>2014-09-03T06:12:40.000Z</time>
      </trkpt>
      <trkpt lat="42.91297" lon="0.21625">
        <ele>1565.8000488281</ele>
        <time>2014-09-03T06:12:49.000Z</time>
      </trkpt>
      <trkpt lat="42.9128" lon="0.21614">
        <ele>1566</ele>
        <time>2014-09-03T06:12:58.000Z</time>
      </trkpt>
      <trkpt lat="42.91262" lon="0.21604">
        <ele>1566.5999755859</ele>
        <time>2014-09-03T06:13:07.000Z</time>
      </trkpt>
      <trkpt lat="42.91244" lon="0.21595">
        <ele>1569.8000488281</ele>
        <time>2014-09-03T06:13:16.000Z</time>
      </trkpt>
      <trkpt lat="42.91227" lon="0.21586">
        <ele>1573.5999755859</ele>
        <time>2014-09-03T06:13:25.000Z</time>
      </trkpt>
      <trkpt lat="42.9121" lon="0.21573">
        <ele>1576.8000488281</ele>
        <time>2014-09-03T06:13:34.000Z</time>
      </trkpt>
      <trkpt lat="42.91198" lon="0.21556">
        <ele>1578.1999511719</ele>
        <time>2014-09-03T06:13:43.000Z</time>
      </trkpt>
      <trkpt lat="42.91184" lon="0.21539">
        <ele>1579.1999511719</ele>
        <time>2014-09-03T06:13:52.000Z</time>
      </trkpt>
      <trkpt lat="42.91177" lon="0.21532">
        <ele>1579.1999511719</ele>
        <time>2014-09-03T06:14:00.000Z</time>
      </trkpt>
      <trkpt lat="42.91179" lon="0.21526">
        <ele>1576.5999755859</ele>
        <time>2014-09-03T06:14:04.000Z</time>
      </trkpt>
      <trkpt lat="42.91177" lon="0.21521">
        <ele>1576</ele>
        <time>2014-09-03T06:14:08.000Z</time>
      </trkpt>
      <trkpt lat="42.91169" lon="0.21516">
        <ele>1576</ele>
        <time>2014-09-03T06:14:15.000Z</time>
      </trkpt>
      <trkpt lat="42.91152" lon="0.21501">
        <ele>1573.8000488281</ele>
        <time>2014-09-03T06:14:28.000Z</time>
      </trkpt>
      <trkpt lat="42.91138" lon="0.21487">
        <ele>1571.4000244141</ele>
        <time>2014-09-03T06:14:37.000Z</time>
      </trkpt>
      <trkpt lat="42.91131" lon="0.2148">
        <ele>1570.1999511719</ele>
        <time>2014-09-03T06:14:43.000Z</time>
      </trkpt>
      <trkpt lat="42.91115" lon="0.21485">
        <ele>1573.4000244141</ele>
        <time>2014-09-03T06:15:04.000Z</time>
      </trkpt>
      <trkpt lat="42.91114" lon="0.21487">
        <ele>1574.4000244141</ele>
        <time>2014-09-03T06:15:06.000Z</time>
      </trkpt>
      <trkpt lat="42.91106" lon="0.21494">
        <ele>1577</ele>
        <time>2014-09-03T06:15:11.000Z</time>
      </trkpt>
      <trkpt lat="42.91092" lon="0.215">
        <ele>1580.1999511719</ele>
        <time>2014-09-03T06:15:22.000Z</time>
      </trkpt>
      <trkpt lat="42.91088" lon="0.21516">
        <ele>1585</ele>
        <time>2014-09-03T06:15:37.000Z</time>
      </trkpt>
      <trkpt lat="42.91072" lon="0.21532">
        <ele>1589.4000244141</ele>
        <time>2014-09-03T06:15:46.000Z</time>
      </trkpt>
      <trkpt lat="42.91054" lon="0.2153">
        <ele>1588.4000244141</ele>
        <time>2014-09-03T06:15:55.000Z</time>
      </trkpt>
      <trkpt lat="42.91052" lon="0.21531">
        <ele>1588.5999755859</ele>
        <time>2014-09-03T06:15:57.000Z</time>
      </trkpt>
      <trkpt lat="42.91035" lon="0.21525">
        <ele>1586.5999755859</ele>
        <time>2014-09-03T06:16:17.000Z</time>
      </trkpt>
      <trkpt lat="42.9102" lon="0.21514">
        <ele>1583.4000244141</ele>
        <time>2014-09-03T06:16:34.000Z</time>
      </trkpt>
      <trkpt lat="42.91005" lon="0.21503">
        <ele>1580.5999755859</ele>
        <time>2014-09-03T06:16:51.000Z</time>
      </trkpt>
      <trkpt lat="42.91002" lon="0.21499">
        <ele>1580.1999511719</ele>
        <time>2014-09-03T06:17:02.000Z</time>
      </trkpt>
      <trkpt lat="42.90989" lon="0.21483">
        <ele>1578.1999511719</ele>
        <time>2014-09-03T06:17:28.000Z</time>
      </trkpt>
      <trkpt lat="42.90974" lon="0.21468">
        <ele>1577.1999511719</ele>
        <time>2014-09-03T06:17:43.000Z</time>
      </trkpt>
      <trkpt lat="42.90958" lon="0.21454">
        <ele>1577.4000244141</ele>
        <time>2014-09-03T06:17:56.000Z</time>
      </trkpt>
      <trkpt lat="42.90955" lon="0.2145">
        <ele>1577.5999755859</ele>
        <time>2014-09-03T06:17:59.000Z</time>
      </trkpt>
      <trkpt lat="42.90945" lon="0.21446">
        <ele>1578.8000488281</ele>
        <time>2014-09-03T06:18:07.000Z</time>
      </trkpt>
      <trkpt lat="42.90937" lon="0.21442">
        <ele>1579.8000488281</ele>
        <time>2014-09-03T06:18:13.000Z</time>
      </trkpt>
      <trkpt lat="42.90923" lon="0.21436">
        <ele>1581.5999755859</ele>
        <time>2014-09-03T06:18:23.000Z</time>
      </trkpt>
      <trkpt lat="42.90917" lon="0.21429">
        <ele>1582.4000244141</ele>
        <time>2014-09-03T06:18:28.000Z</time>
      </trkpt>
      <trkpt lat="42.9091" lon="0.21425">
        <ele>1583.4000244141</ele>
        <time>2014-09-03T06:18:34.000Z</time>
      </trkpt>
      <trkpt lat="42.90908" lon="0.21424">
        <ele>1583.8000488281</ele>
        <time>2014-09-03T06:18:36.000Z</time>
      </trkpt>
      <trkpt lat="42.90903" lon="0.21417">
        <ele>1584</ele>
        <time>2014-09-03T06:18:42.000Z</time>
      </trkpt>
      <trkpt lat="42.90897" lon="0.2141">
        <ele>1584.8000488281</ele>
        <time>2014-09-03T06:18:48.000Z</time>
      </trkpt>
      <trkpt lat="42.90893" lon="0.21402">
        <ele>1584.8000488281</ele>
        <time>2014-09-03T06:18:54.000Z</time>
      </trkpt>
      <trkpt lat="42.90886" lon="0.21396">
        <ele>1585.8000488281</ele>
        <time>2014-09-03T06:19:01.000Z</time>
      </trkpt>
      <trkpt lat="42.9088" lon="0.21392">
        <ele>1586.5999755859</ele>
        <time>2014-09-03T06:19:06.000Z</time>
      </trkpt>
      <trkpt lat="42.9087" lon="0.2138">
        <ele>1587.5999755859</ele>
        <time>2014-09-03T06:19:17.000Z</time>
      </trkpt>
      <trkpt lat="42.90865" lon="0.2137">
        <ele>1587.8000488281</ele>
        <time>2014-09-03T06:19:24.000Z</time>
      </trkpt>
      <trkpt lat="42.90855" lon="0.21359">
        <ele>1588.8000488281</ele>
        <time>2014-09-03T06:19:33.000Z</time>
      </trkpt>
      <trkpt lat="42.90838" lon="0.21343">
        <ele>1590.5999755859</ele>
        <time>2014-09-03T06:19:44.000Z</time>
      </trkpt>
      <trkpt lat="42.90823" lon="0.21327">
        <ele>1593</ele>
        <time>2014-09-03T06:19:54.000Z</time>
      </trkpt>
      <trkpt lat="42.90812" lon="0.21304">
        <ele>1593.5999755859</ele>
        <time>2014-09-03T06:20:06.000Z</time>
      </trkpt>
      <trkpt lat="42.90812" lon="0.21302">
        <ele>1593.4000244141</ele>
        <time>2014-09-03T06:20:08.000Z</time>
      </trkpt>
      <trkpt lat="42.90797" lon="0.21289">
        <ele>1595.8000488281</ele>
        <time>2014-09-03T06:20:28.000Z</time>
      </trkpt>
      <trkpt lat="42.90785" lon="0.21269">
        <ele>1596.4000244141</ele>
        <time>2014-09-03T06:20:45.000Z</time>
      </trkpt>
      <trkpt lat="42.90773" lon="0.2125">
        <ele>1597</ele>
        <time>2014-09-03T06:20:58.000Z</time>
      </trkpt>
      <trkpt lat="42.90771" lon="0.21244">
        <ele>1596.5999755859</ele>
        <time>2014-09-03T06:21:03.000Z</time>
      </trkpt>
      <trkpt lat="42.90767" lon="0.21219">
        <ele>1594.5999755859</ele>
        <time>2014-09-03T06:21:17.000Z</time>
      </trkpt>
      <trkpt lat="42.90757" lon="0.21206">
        <ele>1596</ele>
        <time>2014-09-03T06:21:27.000Z</time>
      </trkpt>
      <trkpt lat="42.90748" lon="0.21183">
        <ele>1597.1999511719</ele>
        <time>2014-09-03T06:21:44.000Z</time>
      </trkpt>
      <trkpt lat="42.90739" lon="0.2117">
        <ele>1598.1999511719</ele>
        <time>2014-09-03T06:21:53.000Z</time>
      </trkpt>
      <trkpt lat="42.90732" lon="0.2116">
        <ele>1599</ele>
        <time>2014-09-03T06:22:02.000Z</time>
      </trkpt>
      <trkpt lat="42.9073" lon="0.21151">
        <ele>1599.4000244141</ele>
        <time>2014-09-03T06:22:08.000Z</time>
      </trkpt>
      <trkpt lat="42.90718" lon="0.21133">
        <ele>1600.5999755859</ele>
        <time>2014-09-03T06:22:25.000Z</time>
      </trkpt>
      <trkpt lat="42.90719" lon="0.21131">
        <ele>1600.5999755859</ele>
        <time>2014-09-03T06:22:26.000Z</time>
      </trkpt>
      <trkpt lat="42.90716" lon="0.21122">
        <ele>1601.1999511719</ele>
        <time>2014-09-03T06:22:32.000Z</time>
      </trkpt>
      <trkpt lat="42.907" lon="0.21114">
        <ele>1603.1999511719</ele>
        <time>2014-09-03T06:22:46.000Z</time>
      </trkpt>
      <trkpt lat="42.90682" lon="0.21117">
        <ele>1604.8000488281</ele>
        <time>2014-09-03T06:23:01.000Z</time>
      </trkpt>
      <trkpt lat="42.90664" lon="0.21121">
        <ele>1607.1999511719</ele>
        <time>2014-09-03T06:23:16.000Z</time>
      </trkpt>
      <trkpt lat="42.90647" lon="0.21122">
        <ele>1610.8000488281</ele>
        <time>2014-09-03T06:23:27.000Z</time>
      </trkpt>
      <trkpt lat="42.90644" lon="0.21123">
        <ele>1611.1999511719</ele>
        <time>2014-09-03T06:23:29.000Z</time>
      </trkpt>
      <trkpt lat="42.90634" lon="0.21119">
        <ele>1613.4000244141</ele>
        <time>2014-09-03T06:23:36.000Z</time>
      </trkpt>
      <trkpt lat="42.9062" lon="0.21115">
        <ele>1616.4000244141</ele>
        <time>2014-09-03T06:23:45.000Z</time>
      </trkpt>
      <trkpt lat="42.90617" lon="0.21108">
        <ele>1617.1999511719</ele>
        <time>2014-09-03T06:23:50.000Z</time>
      </trkpt>
      <trkpt lat="42.90614" lon="0.21105">
        <ele>1618</ele>
        <time>2014-09-03T06:23:53.000Z</time>
      </trkpt>
      <trkpt lat="42.90604" lon="0.21098">
        <ele>1620.1999511719</ele>
        <time>2014-09-03T06:24:04.000Z</time>
      </trkpt>
      <trkpt lat="42.90593" lon="0.21096">
        <ele>1622.5999755859</ele>
        <time>2014-09-03T06:24:16.000Z</time>
      </trkpt>
      <trkpt lat="42.90584" lon="0.21076">
        <ele>1626.8000488281</ele>
        <time>2014-09-03T06:24:30.000Z</time>
      </trkpt>
      <trkpt lat="42.90575" lon="0.21062">
        <ele>1631</ele>
        <time>2014-09-03T06:24:41.000Z</time>
      </trkpt>
      <trkpt lat="42.90564" lon="0.21047">
        <ele>1636.8000488281</ele>
        <time>2014-09-03T06:24:58.000Z</time>
      </trkpt>
      <trkpt lat="42.90562" lon="0.21041">
        <ele>1639.1999511719</ele>
        <time>2014-09-03T06:25:05.000Z</time>
      </trkpt>
      <trkpt lat="42.90558" lon="0.21032">
        <ele>1643</ele>
        <time>2014-09-03T06:25:13.000Z</time>
      </trkpt>
      <trkpt lat="42.90546" lon="0.21021">
        <ele>1651.8000488281</ele>
        <time>2014-09-03T06:25:34.000Z</time>
      </trkpt>
      <trkpt lat="42.9054" lon="0.21018">
        <ele>1655.1999511719</ele>
        <time>2014-09-03T06:25:41.000Z</time>
      </trkpt>
      <trkpt lat="42.90539" lon="0.21016">
        <ele>1655.8000488281</ele>
        <time>2014-09-03T06:25:42.000Z</time>
      </trkpt>
      <trkpt lat="42.90547" lon="0.20993">
        <ele>1658</ele>
        <time>2014-09-03T06:26:07.000Z</time>
      </trkpt>
      <trkpt lat="42.9055" lon="0.20969">
        <ele>1661.1999511719</ele>
        <time>2014-09-03T06:26:27.000Z</time>
      </trkpt>
      <trkpt lat="42.90556" lon="0.20946">
        <ele>1665.4000244141</ele>
        <time>2014-09-03T06:26:48.000Z</time>
      </trkpt>
      <trkpt lat="42.90563" lon="0.20924">
        <ele>1669</ele>
        <time>2014-09-03T06:27:12.000Z</time>
      </trkpt>
      <trkpt lat="42.90551" lon="0.2091">
        <ele>1679.8000488281</ele>
        <time>2014-09-03T06:27:41.000Z</time>
      </trkpt>
      <trkpt lat="42.90533" lon="0.20915">
        <ele>1688</ele>
        <time>2014-09-03T06:28:00.000Z</time>
      </trkpt>
      <trkpt lat="42.90516" lon="0.20922">
        <ele>1694.1999511719</ele>
        <time>2014-09-03T06:28:22.000Z</time>
      </trkpt>
      <trkpt lat="42.905" lon="0.20925">
        <ele>1700.5999755859</ele>
        <time>2014-09-03T06:28:54.000Z</time>
      </trkpt>
      <trkpt lat="42.90489" lon="0.20943">
        <ele>1698.5999755859</ele>
        <time>2014-09-03T06:29:19.000Z</time>
      </trkpt>
      <trkpt lat="42.90473" lon="0.20957">
        <ele>1700.4000244141</ele>
        <time>2014-09-03T06:29:39.000Z</time>
      </trkpt>
      <trkpt lat="42.90463" lon="0.20953">
        <ele>1705.5999755859</ele>
        <time>2014-09-03T06:30:21.000Z</time>
      </trkpt>
      <trkpt lat="42.90446" lon="0.2095">
        <ele>1713.1999511719</ele>
        <time>2014-09-03T06:30:41.000Z</time>
      </trkpt>
      <trkpt lat="42.90441" lon="0.20973">
        <ele>1708</ele>
        <time>2014-09-03T06:31:09.000Z</time>
      </trkpt>
      <trkpt lat="42.90433" lon="0.20958">
        <ele>1715.8000488281</ele>
        <time>2014-09-03T06:31:36.000Z</time>
      </trkpt>
      <trkpt lat="42.90425" lon="0.20954">
        <ele>1720.1999511719</ele>
        <time>2014-09-03T06:31:40.000Z</time>
      </trkpt>
      <trkpt lat="42.90411" lon="0.20947">
        <ele>1724.1999511719</ele>
        <time>2014-09-03T06:31:49.000Z</time>
      </trkpt>
      <trkpt lat="42.90401" lon="0.20941">
        <ele>1727.1999511719</ele>
        <time>2014-09-03T06:31:56.000Z</time>
      </trkpt>
      <trkpt lat="42.90393" lon="0.20937">
        <ele>1730</ele>
        <time>2014-09-03T06:32:01.000Z</time>
      </trkpt>
      <trkpt lat="42.9038" lon="0.20926">
        <ele>1735.1999511719</ele>
        <time>2014-09-03T06:32:17.000Z</time>
      </trkpt>
      <trkpt lat="42.90369" lon="0.20908">
        <ele>1740.8000488281</ele>
        <time>2014-09-03T06:32:44.000Z</time>
      </trkpt>
      <trkpt lat="42.90366" lon="0.20905">
        <ele>1742</ele>
        <time>2014-09-03T06:32:49.000Z</time>
      </trkpt>
      <trkpt lat="42.90364" lon="0.20903">
        <ele>1743</ele>
        <time>2014-09-03T06:32:52.000Z</time>
      </trkpt>
      <trkpt lat="42.90347" lon="0.20891">
        <ele>1749.1999511719</ele>
        <time>2014-09-03T06:33:17.000Z</time>
      </trkpt>
      <trkpt lat="42.9033" lon="0.20883">
        <ele>1754.1999511719</ele>
        <time>2014-09-03T06:33:40.000Z</time>
      </trkpt>
      <trkpt lat="42.90317" lon="0.20867">
        <ele>1761.5999755859</ele>
        <time>2014-09-03T06:34:14.000Z</time>
      </trkpt>
      <trkpt lat="42.90311" lon="0.20861">
        <ele>1765</ele>
        <time>2014-09-03T06:34:19.000Z</time>
      </trkpt>
      <trkpt lat="42.90293" lon="0.20858">
        <ele>1769.8000488281</ele>
        <time>2014-09-03T06:34:28.000Z</time>
      </trkpt>
      <trkpt lat="42.90291" lon="0.20859">
        <ele>1769.8000488281</ele>
        <time>2014-09-03T06:34:30.000Z</time>
      </trkpt>
      <trkpt lat="42.90277" lon="0.20852">
        <ele>1775.1999511719</ele>
        <time>2014-09-03T06:34:53.000Z</time>
      </trkpt>
      <trkpt lat="42.90264" lon="0.20838">
        <ele>1782.5999755859</ele>
        <time>2014-09-03T06:35:25.000Z</time>
      </trkpt>
      <trkpt lat="42.90246" lon="0.20835">
        <ele>1787.4000244141</ele>
        <time>2014-09-03T06:35:58.000Z</time>
      </trkpt>
      <trkpt lat="42.90233" lon="0.20846">
        <ele>1786.4000244141</ele>
        <time>2014-09-03T06:36:36.000Z</time>
      </trkpt>
      <trkpt lat="42.90216" lon="0.20841">
        <ele>1792.8000488281</ele>
        <time>2014-09-03T06:37:02.000Z</time>
      </trkpt>
      <trkpt lat="42.90213" lon="0.20818">
        <ele>1801</ele>
        <time>2014-09-03T06:37:48.000Z</time>
      </trkpt>
      <trkpt lat="42.90199" lon="0.20804">
        <ele>1809.4000244141</ele>
        <time>2014-09-03T06:38:09.000Z</time>
      </trkpt>
      <trkpt lat="42.90193" lon="0.20801">
        <ele>1811.4000244141</ele>
        <time>2014-09-03T06:38:49.000Z</time>
      </trkpt>
      <trkpt lat="42.90181" lon="0.20795">
        <ele>1816.4000244141</ele>
        <time>2014-09-03T06:39:20.000Z</time>
      </trkpt>
      <trkpt lat="42.90172" lon="0.20777">
        <ele>1822.5999755859</ele>
        <time>2014-09-03T06:39:56.000Z</time>
      </trkpt>
      <trkpt lat="42.90184" lon="0.20764">
        <ele>1823.1999511719</ele>
        <time>2014-09-03T06:40:25.000Z</time>
      </trkpt>
      <trkpt lat="42.9018" lon="0.20745">
        <ele>1828.5999755859</ele>
        <time>2014-09-03T06:40:55.000Z</time>
      </trkpt>
      <trkpt lat="42.90167" lon="0.20729">
        <ele>1835.1999511719</ele>
        <time>2014-09-03T06:41:20.000Z</time>
      </trkpt>
      <trkpt lat="42.90159" lon="0.20707">
        <ele>1841.1999511719</ele>
        <time>2014-09-03T06:41:44.000Z</time>
      </trkpt>
      <trkpt lat="42.90152" lon="0.20684">
        <ele>1846.1999511719</ele>
        <time>2014-09-03T06:42:04.000Z</time>
      </trkpt>
      <trkpt lat="42.90143" lon="0.20663">
        <ele>1852.5999755859</ele>
        <time>2014-09-03T06:42:26.000Z</time>
      </trkpt>
      <trkpt lat="42.90133" lon="0.20642">
        <ele>1859.1999511719</ele>
        <time>2014-09-03T06:42:45.000Z</time>
      </trkpt>
      <trkpt lat="42.90129" lon="0.20628">
        <ele>1863.4000244141</ele>
        <time>2014-09-03T06:42:58.000Z</time>
      </trkpt>
      <trkpt lat="42.90093" lon="0.20519">
        <ele>1888.4000244141</ele>
        <time>2014-09-03T06:45:28.000Z</time>
      </trkpt>
      <trkpt lat="42.90084" lon="0.20501">
        <ele>1893.5999755859</ele>
        <time>2014-09-03T06:45:55.000Z</time>
      </trkpt>
      <trkpt lat="42.90073" lon="0.20483">
        <ele>1899</ele>
        <time>2014-09-03T06:46:20.000Z</time>
      </trkpt>
      <trkpt lat="42.9006" lon="0.20466">
        <ele>1904</ele>
        <time>2014-09-03T06:46:44.000Z</time>
      </trkpt>
      <trkpt lat="42.90049" lon="0.20446">
        <ele>1909.8000488281</ele>
        <time>2014-09-03T06:47:05.000Z</time>
      </trkpt>
      <trkpt lat="42.90033" lon="0.20435">
        <ele>1913</ele>
        <time>2014-09-03T06:47:31.000Z</time>
      </trkpt>
      <trkpt lat="42.90015" lon="0.20437">
        <ele>1912</ele>
        <time>2014-09-03T06:48:01.000Z</time>
      </trkpt>
      <trkpt lat="42.90003" lon="0.20418">
        <ele>1917.4000244141</ele>
        <time>2014-09-03T06:48:23.000Z</time>
      </trkpt>
      <trkpt lat="42.8999" lon="0.20399">
        <ele>1922.5999755859</ele>
        <time>2014-09-03T06:48:47.000Z</time>
      </trkpt>
      <trkpt lat="42.89983" lon="0.20376">
        <ele>1929.1999511719</ele>
        <time>2014-09-03T06:49:10.000Z</time>
      </trkpt>
      <trkpt lat="42.89974" lon="0.20354">
        <ele>1932.5999755859</ele>
        <time>2014-09-03T06:49:30.000Z</time>
      </trkpt>
      <trkpt lat="42.89968" lon="0.2033">
        <ele>1936.8000488281</ele>
        <time>2014-09-03T06:49:50.000Z</time>
      </trkpt>
      <trkpt lat="42.89962" lon="0.20305">
        <ele>1941.8000488281</ele>
        <time>2014-09-03T06:50:07.000Z</time>
      </trkpt>
      <trkpt lat="42.89952" lon="0.20281">
        <ele>1946.1999511719</ele>
        <time>2014-09-03T06:50:19.000Z</time>
      </trkpt>
      <trkpt lat="42.89937" lon="0.20265">
        <ele>1948.4000244141</ele>
        <time>2014-09-03T06:50:34.000Z</time>
      </trkpt>
      <trkpt lat="42.89924" lon="0.20258">
        <ele>1948.5999755859</ele>
        <time>2014-09-03T06:50:45.000Z</time>
      </trkpt>
      <trkpt lat="42.89915" lon="0.20252">
        <ele>1949.1999511719</ele>
        <time>2014-09-03T06:52:04.000Z</time>
      </trkpt>
      <trkpt lat="42.89904" lon="0.20232">
        <ele>1953.1999511719</ele>
        <time>2014-09-03T06:52:27.000Z</time>
      </trkpt>
      <trkpt lat="42.8989" lon="0.20216">
        <ele>1956</ele>
        <time>2014-09-03T06:52:43.000Z</time>
      </trkpt>
      <trkpt lat="42.89877" lon="0.20198">
        <ele>1957.4000244141</ele>
        <time>2014-09-03T06:53:00.000Z</time>
      </trkpt>
      <trkpt lat="42.89864" lon="0.2018">
        <ele>1958.1999511719</ele>
        <time>2014-09-03T06:53:16.000Z</time>
      </trkpt>
      <trkpt lat="42.89858" lon="0.20156">
        <ele>1959.8000488281</ele>
        <time>2014-09-03T06:53:36.000Z</time>
      </trkpt>
      <trkpt lat="42.89862" lon="0.20132">
        <ele>1964.8000488281</ele>
        <time>2014-09-03T06:53:55.000Z</time>
      </trkpt>
      <trkpt lat="42.89875" lon="0.20115">
        <ele>1973.1999511719</ele>
        <time>2014-09-03T06:54:20.000Z</time>
      </trkpt>
      <trkpt lat="42.89885" lon="0.20092">
        <ele>1983.1999511719</ele>
        <time>2014-09-03T06:54:48.000Z</time>
      </trkpt>
      <trkpt lat="42.89887" lon="0.20069">
        <ele>1987.8000488281</ele>
        <time>2014-09-03T06:55:16.000Z</time>
      </trkpt>
      <trkpt lat="42.89873" lon="0.20055">
        <ele>1990</ele>
        <time>2014-09-03T06:55:37.000Z</time>
      </trkpt>
      <trkpt lat="42.89856" lon="0.20059">
        <ele>1989</ele>
        <time>2014-09-03T06:56:05.000Z</time>
      </trkpt>
      <trkpt lat="42.89838" lon="0.20055">
        <ele>1987.5999755859</ele>
        <time>2014-09-03T06:56:23.000Z</time>
      </trkpt>
      <trkpt lat="42.8982" lon="0.20049">
        <ele>1990.8000488281</ele>
        <time>2014-09-03T06:56:41.000Z</time>
      </trkpt>
      <trkpt lat="42.89818" lon="0.20049">
        <ele>1990.8000488281</ele>
        <time>2014-09-03T06:56:43.000Z</time>
      </trkpt>
      <trkpt lat="42.89812" lon="0.20048">
        <ele>1991.5999755859</ele>
        <time>2014-09-03T06:56:48.000Z</time>
      </trkpt>
      <trkpt lat="42.89805" lon="0.20045">
        <ele>1993</ele>
        <time>2014-09-03T06:56:56.000Z</time>
      </trkpt>
      <trkpt lat="42.89795" lon="0.20041">
        <ele>1995.1999511719</ele>
        <time>2014-09-03T06:57:05.000Z</time>
      </trkpt>
      <trkpt lat="42.89792" lon="0.20039">
        <ele>1996.4000244141</ele>
        <time>2014-09-03T06:57:08.000Z</time>
      </trkpt>
      <trkpt lat="42.89776" lon="0.20027">
        <ele>2002.1999511719</ele>
        <time>2014-09-03T06:57:27.000Z</time>
      </trkpt>
      <trkpt lat="42.8976" lon="0.20016">
        <ele>2007.8000488281</ele>
        <time>2014-09-03T06:57:48.000Z</time>
      </trkpt>
      <trkpt lat="42.89744" lon="0.20008">
        <ele>2012.4000244141</ele>
        <time>2014-09-03T06:58:16.000Z</time>
      </trkpt>
      <trkpt lat="42.89727" lon="0.20014">
        <ele>2011.4000244141</ele>
        <time>2014-09-03T06:58:32.000Z</time>
      </trkpt>
      <trkpt lat="42.89715" lon="0.20019">
        <ele>2014.4000244141</ele>
        <time>2014-09-03T06:58:42.000Z</time>
      </trkpt>
      <trkpt lat="42.89703" lon="0.2002">
        <ele>2018.1999511719</ele>
        <time>2014-09-03T06:58:54.000Z</time>
      </trkpt>
      <trkpt lat="42.89687" lon="0.20031">
        <ele>2021.8000488281</ele>
        <time>2014-09-03T06:59:09.000Z</time>
      </trkpt>
      <trkpt lat="42.89671" lon="0.20043">
        <ele>2024.4000244141</ele>
        <time>2014-09-03T06:59:24.000Z</time>
      </trkpt>
      <trkpt lat="42.89667" lon="0.20044">
        <ele>2025.1999511719</ele>
        <time>2014-09-03T06:59:28.000Z</time>
      </trkpt>
      <trkpt lat="42.8966" lon="0.20021">
        <ele>2028.4000244141</ele>
        <time>2014-09-03T06:59:48.000Z</time>
      </trkpt>
      <trkpt lat="42.8966" lon="0.2">
        <ele>2032</ele>
        <time>2014-09-03T07:00:05.000Z</time>
      </trkpt>
      <trkpt lat="42.89661" lon="0.19996">
        <ele>2032.5999755859</ele>
        <time>2014-09-03T07:00:10.000Z</time>
      </trkpt>
      <trkpt lat="42.89648" lon="0.19967">
        <ele>2038</ele>
        <time>2014-09-03T07:01:04.000Z</time>
      </trkpt>
      <trkpt lat="42.89644" lon="0.19944">
        <ele>2039.4000244141</ele>
        <time>2014-09-03T07:01:16.000Z</time>
      </trkpt>
      <trkpt lat="42.89637" lon="0.19935">
        <ele>2040</ele>
        <time>2014-09-03T07:01:24.000Z</time>
      </trkpt>
      <trkpt lat="42.89632" lon="0.19928">
        <ele>2040.1999511719</ele>
        <time>2014-09-03T07:01:30.000Z</time>
      </trkpt>
      <trkpt lat="42.89627" lon="0.1992">
        <ele>2040.5999755859</ele>
        <time>2014-09-03T07:01:36.000Z</time>
      </trkpt>
      <trkpt lat="42.89623" lon="0.19902">
        <ele>2043.1999511719</ele>
        <time>2014-09-03T07:01:48.000Z</time>
      </trkpt>
      <trkpt lat="42.8962" lon="0.19897">
        <ele>2043.8000488281</ele>
        <time>2014-09-03T07:01:52.000Z</time>
      </trkpt>
      <trkpt lat="42.8962" lon="0.19895">
        <ele>2044</ele>
        <time>2014-09-03T07:01:53.000Z</time>
      </trkpt>
      <trkpt lat="42.89613" lon="0.19882">
        <ele>2045.5999755859</ele>
        <time>2014-09-03T07:02:05.000Z</time>
      </trkpt>
      <trkpt lat="42.8961" lon="0.19882">
        <ele>2045.4000244141</ele>
        <time>2014-09-03T07:02:08.000Z</time>
      </trkpt>
      <trkpt lat="42.89604" lon="0.19874">
        <ele>2046.1999511719</ele>
        <time>2014-09-03T07:02:16.000Z</time>
      </trkpt>
      <trkpt lat="42.89593" lon="0.19861">
        <ele>2047.8000488281</ele>
        <time>2014-09-03T07:02:31.000Z</time>
      </trkpt>
      <trkpt lat="42.89582" lon="0.19856">
        <ele>2046.8000488281</ele>
        <time>2014-09-03T07:02:43.000Z</time>
      </trkpt>
      <trkpt lat="42.89564" lon="0.19853">
        <ele>2044.1999511719</ele>
        <time>2014-09-03T07:03:00.000Z</time>
      </trkpt>
      <trkpt lat="42.89548" lon="0.19842">
        <ele>2044.1999511719</ele>
        <time>2014-09-03T07:03:17.000Z</time>
      </trkpt>
      <trkpt lat="42.89531" lon="0.19833">
        <ele>2044.1999511719</ele>
        <time>2014-09-03T07:03:45.000Z</time>
      </trkpt>
      <trkpt lat="42.8953" lon="0.19831">
        <ele>2044.4000244141</ele>
        <time>2014-09-03T07:03:48.000Z</time>
      </trkpt>
      <trkpt lat="42.89515" lon="0.19821">
        <ele>2044.4000244141</ele>
        <time>2014-09-03T07:04:41.000Z</time>
      </trkpt>
      <trkpt lat="42.89513" lon="0.19821">
        <ele>2044.4000244141</ele>
        <time>2014-09-03T07:04:42.000Z</time>
      </trkpt>
      <trkpt lat="42.89504" lon="0.19817">
        <ele>2044.1999511719</ele>
        <time>2014-09-03T07:04:47.000Z</time>
      </trkpt>
      <trkpt lat="42.89496" lon="0.19814">
        <ele>2044.1999511719</ele>
        <time>2014-09-03T07:04:51.000Z</time>
      </trkpt>
      <trkpt lat="42.89482" lon="0.19798">
        <ele>2045.1999511719</ele>
        <time>2014-09-03T07:05:05.000Z</time>
      </trkpt>
      <trkpt lat="42.8948" lon="0.19795">
        <ele>2045.4000244141</ele>
        <time>2014-09-03T07:05:07.000Z</time>
      </trkpt>
      <trkpt lat="42.89477" lon="0.19789">
        <ele>2046</ele>
        <time>2014-09-03T07:05:11.000Z</time>
      </trkpt>
      <trkpt lat="42.89474" lon="0.19786">
        <ele>2046</ele>
        <time>2014-09-03T07:05:15.000Z</time>
      </trkpt>
      <trkpt lat="42.89466" lon="0.19776">
        <ele>2047</ele>
        <time>2014-09-03T07:05:24.000Z</time>
      </trkpt>
      <trkpt lat="42.89456" lon="0.19771">
        <ele>2047</ele>
        <time>2014-09-03T07:05:34.000Z</time>
      </trkpt>
      <trkpt lat="42.89451" lon="0.19764">
        <ele>2047.4000244141</ele>
        <time>2014-09-03T07:05:42.000Z</time>
      </trkpt>
      <trkpt lat="42.89441" lon="0.19742">
        <ele>2049.3999023438</ele>
        <time>2014-09-03T07:06:01.000Z</time>
      </trkpt>
      <trkpt lat="42.89438" lon="0.19734">
        <ele>2050.1999511719</ele>
        <time>2014-09-03T07:06:08.000Z</time>
      </trkpt>
      <trkpt lat="42.89424" lon="0.19725">
        <ele>2050.3999023438</ele>
        <time>2014-09-03T07:06:21.000Z</time>
      </trkpt>
      <trkpt lat="42.89411" lon="0.19713">
        <ele>2054</ele>
        <time>2014-09-03T07:06:40.000Z</time>
      </trkpt>
      <trkpt lat="42.89405" lon="0.19721">
        <ele>2053.8000488281</ele>
        <time>2014-09-03T07:06:45.000Z</time>
      </trkpt>
      <trkpt lat="42.89397" lon="0.19725">
        <ele>2054.8000488281</ele>
        <time>2014-09-03T07:07:33.000Z</time>
      </trkpt>
      <trkpt lat="42.89392" lon="0.19726">
        <ele>2055.6000976562</ele>
        <time>2014-09-03T07:07:37.000Z</time>
      </trkpt>
      <trkpt lat="42.89384" lon="0.19729">
        <ele>2056.6000976562</ele>
        <time>2014-09-03T07:07:43.000Z</time>
      </trkpt>
      <trkpt lat="42.89374" lon="0.19734">
        <ele>2057.6000976562</ele>
        <time>2014-09-03T07:07:51.000Z</time>
      </trkpt>
      <trkpt lat="42.89372" lon="0.19737">
        <ele>2057.6000976562</ele>
        <time>2014-09-03T07:07:53.000Z</time>
      </trkpt>
      <trkpt lat="42.89369" lon="0.19739">
        <ele>2057.8000488281</ele>
        <time>2014-09-03T07:07:56.000Z</time>
      </trkpt>
      <trkpt lat="42.89362" lon="0.19745">
        <ele>2059.8000488281</ele>
        <time>2014-09-03T07:08:03.000Z</time>
      </trkpt>
      <trkpt lat="42.89357" lon="0.19745">
        <ele>2061.1999511719</ele>
        <time>2014-09-03T07:08:07.000Z</time>
      </trkpt>
      <trkpt lat="42.89353" lon="0.19742">
        <ele>2062.1999511719</ele>
        <time>2014-09-03T07:08:11.000Z</time>
      </trkpt>
      <trkpt lat="42.89346" lon="0.1974">
        <ele>2064.1999511719</ele>
        <time>2014-09-03T07:08:18.000Z</time>
      </trkpt>
      <trkpt lat="42.89341" lon="0.19739">
        <ele>2065.8000488281</ele>
        <time>2014-09-03T07:08:24.000Z</time>
      </trkpt>
      <trkpt lat="42.89329" lon="0.1975">
        <ele>2069.8000488281</ele>
        <time>2014-09-03T07:08:48.000Z</time>
      </trkpt>
      <trkpt lat="42.89314" lon="0.19741">
        <ele>2075</ele>
        <time>2014-09-03T07:09:21.000Z</time>
      </trkpt>
      <trkpt lat="42.893" lon="0.19749">
        <ele>2080</ele>
        <time>2014-09-03T07:09:51.000Z</time>
      </trkpt>
      <trkpt lat="42.89291" lon="0.19767">
        <ele>2080.3999023438</ele>
        <time>2014-09-03T07:10:29.000Z</time>
      </trkpt>
      <trkpt lat="42.89287" lon="0.19777">
        <ele>2080.1999511719</ele>
        <time>2014-09-03T07:10:36.000Z</time>
      </trkpt>
      <trkpt lat="42.89274" lon="0.19792">
        <ele>2081.3999023438</ele>
        <time>2014-09-03T07:10:48.000Z</time>
      </trkpt>
      <trkpt lat="42.89267" lon="0.19798">
        <ele>2083</ele>
        <time>2014-09-03T07:10:54.000Z</time>
      </trkpt>
      <trkpt lat="42.89266" lon="0.19799">
        <ele>2083.3999023438</ele>
        <time>2014-09-03T07:10:55.000Z</time>
      </trkpt>
      <trkpt lat="42.89258" lon="0.19821">
        <ele>2088.8000488281</ele>
        <time>2014-09-03T07:11:03.000Z</time>
      </trkpt>
      <trkpt lat="42.89246" lon="0.19842">
        <ele>2094.6000976562</ele>
        <time>2014-09-03T07:11:11.000Z</time>
      </trkpt>
      <trkpt lat="42.89244" lon="0.19844">
        <ele>2095.3999023438</ele>
        <time>2014-09-03T07:11:13.000Z</time>
      </trkpt>
      <trkpt lat="42.8923" lon="0.19857">
        <ele>2100.3999023438</ele>
        <time>2014-09-03T07:11:37.000Z</time>
      </trkpt>
      <trkpt lat="42.89236" lon="0.19875">
        <ele>2101.1999511719</ele>
        <time>2014-09-03T07:11:58.000Z</time>
      </trkpt>
      <trkpt lat="42.89237" lon="0.19876">
        <ele>2101</ele>
        <time>2014-09-03T07:11:59.000Z</time>
      </trkpt>
      <trkpt lat="42.89244" lon="0.19878">
        <ele>2100</ele>
        <time>2014-09-03T07:12:06.000Z</time>
      </trkpt>
      <trkpt lat="42.89263" lon="0.19881">
        <ele>2097</ele>
        <time>2014-09-03T07:12:16.000Z</time>
      </trkpt>
      <trkpt lat="42.89279" lon="0.19892">
        <ele>2095.1999511719</ele>
        <time>2014-09-03T07:12:24.000Z</time>
      </trkpt>
      <trkpt lat="42.89288" lon="0.19913">
        <ele>2098.6000976562</ele>
        <time>2014-09-03T07:12:33.000Z</time>
      </trkpt>
      <trkpt lat="42.8929" lon="0.19922">
        <ele>2100.1999511719</ele>
        <time>2014-09-03T07:12:39.000Z</time>
      </trkpt>
      <trkpt lat="42.89279" lon="0.19941">
        <ele>2107.8000488281</ele>
        <time>2014-09-03T07:13:01.000Z</time>
      </trkpt>
      <trkpt lat="42.89277" lon="0.19952">
        <ele>2111.1999511719</ele>
        <time>2014-09-03T07:13:12.000Z</time>
      </trkpt>
      <trkpt lat="42.8929" lon="0.19959">
        <ele>2109.3999023438</ele>
        <time>2014-09-03T07:13:27.000Z</time>
      </trkpt>
      <trkpt lat="42.89296" lon="0.19969">
        <ele>2110</ele>
        <time>2014-09-03T07:13:36.000Z</time>
      </trkpt>
      <trkpt lat="42.89304" lon="0.19989">
        <ele>2111.6000976562</ele>
        <time>2014-09-03T07:13:51.000Z</time>
      </trkpt>
      <trkpt lat="42.89298" lon="0.20001">
        <ele>2115.3999023438</ele>
        <time>2014-09-03T07:14:02.000Z</time>
      </trkpt>
      <trkpt lat="42.89289" lon="0.20001">
        <ele>2117.8000488281</ele>
        <time>2014-09-03T07:14:12.000Z</time>
      </trkpt>
      <trkpt lat="42.89286" lon="0.20017">
        <ele>2121.1999511719</ele>
        <time>2014-09-03T07:14:44.000Z</time>
      </trkpt>
      <trkpt lat="42.89275" lon="0.20027">
        <ele>2125.6000976562</ele>
        <time>2014-09-03T07:15:24.000Z</time>
      </trkpt>
      <trkpt lat="42.89276" lon="0.20052">
        <ele>2129</ele>
        <time>2014-09-03T07:15:48.000Z</time>
      </trkpt>
      <trkpt lat="42.8927" lon="0.20075">
        <ele>2130.8000488281</ele>
        <time>2014-09-03T07:16:15.000Z</time>
      </trkpt>
      <trkpt lat="42.89254" lon="0.20084">
        <ele>2132</ele>
        <time>2014-09-03T07:16:33.000Z</time>
      </trkpt>
      <trkpt lat="42.89237" lon="0.20087">
        <ele>2132.1999511719</ele>
        <time>2014-09-03T07:16:54.000Z</time>
      </trkpt>
      <trkpt lat="42.89233" lon="0.20085">
        <ele>2132.3999023438</ele>
        <time>2014-09-03T07:16:58.000Z</time>
      </trkpt>
      <trkpt lat="42.89223" lon="0.20087">
        <ele>2132.3999023438</ele>
        <time>2014-09-03T07:17:08.000Z</time>
      </trkpt>
      <trkpt lat="42.89209" lon="0.20094">
        <ele>2133.1999511719</ele>
        <time>2014-09-03T07:17:24.000Z</time>
      </trkpt>
      <trkpt lat="42.89208" lon="0.20097">
        <ele>2133.3999023438</ele>
        <time>2014-09-03T07:17:27.000Z</time>
      </trkpt>
      <trkpt lat="42.89202" lon="0.20102">
        <ele>2134</ele>
        <time>2014-09-03T07:17:34.000Z</time>
      </trkpt>
      <trkpt lat="42.89191" lon="0.20102">
        <ele>2134.8000488281</ele>
        <time>2014-09-03T07:17:45.000Z</time>
      </trkpt>
      <trkpt lat="42.89189" lon="0.20102">
        <ele>2135</ele>
        <time>2014-09-03T07:17:47.000Z</time>
      </trkpt>
      <trkpt lat="42.89173" lon="0.20093">
        <ele>2135.6000976562</ele>
        <time>2014-09-03T07:18:05.000Z</time>
      </trkpt>
      <trkpt lat="42.89157" lon="0.20084">
        <ele>2133.8000488281</ele>
        <time>2014-09-03T07:18:34.000Z</time>
      </trkpt>
      <trkpt lat="42.89143" lon="0.20086">
        <ele>2132.6000976562</ele>
        <time>2014-09-03T07:19:26.000Z</time>
      </trkpt>
      <trkpt lat="42.89136" lon="0.20082">
        <ele>2131.8000488281</ele>
        <time>2014-09-03T07:19:38.000Z</time>
      </trkpt>
      <trkpt lat="42.89132" lon="0.20107">
        <ele>2136.1999511719</ele>
        <time>2014-09-03T07:21:02.000Z</time>
      </trkpt>
      <trkpt lat="42.89122" lon="0.20117">
        <ele>2139.1999511719</ele>
        <time>2014-09-03T07:21:27.000Z</time>
      </trkpt>
      <trkpt lat="42.89109" lon="0.20128">
        <ele>2143.1999511719</ele>
        <time>2014-09-03T07:21:53.000Z</time>
      </trkpt>
      <trkpt lat="42.89099" lon="0.20146">
        <ele>2145.1999511719</ele>
        <time>2014-09-03T07:22:43.000Z</time>
      </trkpt>
      <trkpt lat="42.89093" lon="0.20156">
        <ele>2148.3999023438</ele>
        <time>2014-09-03T07:22:52.000Z</time>
      </trkpt>
      <trkpt lat="42.89089" lon="0.20162">
        <ele>2150</ele>
        <time>2014-09-03T07:23:00.000Z</time>
      </trkpt>
      <trkpt lat="42.89078" lon="0.20169">
        <ele>2147.6000976562</ele>
        <time>2014-09-03T07:23:35.000Z</time>
      </trkpt>
      <trkpt lat="42.89075" lon="0.20185">
        <ele>2149.3999023438</ele>
        <time>2014-09-03T07:23:50.000Z</time>
      </trkpt>
      <trkpt lat="42.89068" lon="0.20197">
        <ele>2150</ele>
        <time>2014-09-03T07:24:00.000Z</time>
      </trkpt>
      <trkpt lat="42.89056" lon="0.20214">
        <ele>2151</ele>
        <time>2014-09-03T07:24:23.000Z</time>
      </trkpt>
      <trkpt lat="42.89044" lon="0.20232">
        <ele>2148</ele>
        <time>2014-09-03T07:24:53.000Z</time>
      </trkpt>
      <trkpt lat="42.89048" lon="0.20212">
        <ele>2149.3999023438</ele>
        <time>2014-09-03T07:25:54.000Z</time>
      </trkpt>
      <trkpt lat="42.89063" lon="0.20199">
        <ele>2149.3999023438</ele>
        <time>2014-09-03T07:26:14.000Z</time>
      </trkpt>
      <trkpt lat="42.89072" lon="0.20179">
        <ele>2147.6000976562</ele>
        <time>2014-09-03T07:26:39.000Z</time>
      </trkpt>
      <trkpt lat="42.89075" lon="0.2017">
        <ele>2147</ele>
        <time>2014-09-03T07:26:46.000Z</time>
      </trkpt>
      <trkpt lat="42.89085" lon="0.20156">
        <ele>2147.8000488281</ele>
        <time>2014-09-03T07:27:18.000Z</time>
      </trkpt>
      <trkpt lat="42.891" lon="0.20144">
        <ele>2145</ele>
        <time>2014-09-03T07:27:36.000Z</time>
      </trkpt>
      <trkpt lat="42.89112" lon="0.20126">
        <ele>2142.1999511719</ele>
        <time>2014-09-03T07:27:56.000Z</time>
      </trkpt>
      <trkpt lat="42.8912" lon="0.20107">
        <ele>2137.1999511719</ele>
        <time>2014-09-03T07:28:23.000Z</time>
      </trkpt>
      <trkpt lat="42.89135" lon="0.20097">
        <ele>2133.3999023438</ele>
        <time>2014-09-03T07:28:51.000Z</time>
      </trkpt>
      <trkpt lat="42.89146" lon="0.20086">
        <ele>2132.8000488281</ele>
        <time>2014-09-03T07:29:24.000Z</time>
      </trkpt>
      <trkpt lat="42.8916" lon="0.20096">
        <ele>2134.6000976562</ele>
        <time>2014-09-03T07:29:54.000Z</time>
      </trkpt>
      <trkpt lat="42.89167" lon="0.20093">
        <ele>2135.1999511719</ele>
        <time>2014-09-03T07:30:06.000Z</time>
      </trkpt>
      <trkpt lat="42.89183" lon="0.20101">
        <ele>2135.1999511719</ele>
        <time>2014-09-03T07:30:31.000Z</time>
      </trkpt>
      <trkpt lat="42.89195" lon="0.20099">
        <ele>2134.3999023438</ele>
        <time>2014-09-03T07:30:41.000Z</time>
      </trkpt>
      <trkpt lat="42.892" lon="0.20097">
        <ele>2134</ele>
        <time>2014-09-03T07:30:46.000Z</time>
      </trkpt>
      <trkpt lat="42.89209" lon="0.20092">
        <ele>2133.1999511719</ele>
        <time>2014-09-03T07:30:56.000Z</time>
      </trkpt>
      <trkpt lat="42.89215" lon="0.20086">
        <ele>2132.6000976562</ele>
        <time>2014-09-03T07:31:03.000Z</time>
      </trkpt>
      <trkpt lat="42.89216" lon="0.20085">
        <ele>2132.6000976562</ele>
        <time>2014-09-03T07:31:04.000Z</time>
      </trkpt>
      <trkpt lat="42.89225" lon="0.20082">
        <ele>2132.3999023438</ele>
        <time>2014-09-03T07:31:13.000Z</time>
      </trkpt>
      <trkpt lat="42.89235" lon="0.20086">
        <ele>2132.1999511719</ele>
        <time>2014-09-03T07:31:26.000Z</time>
      </trkpt>
      <trkpt lat="42.89249" lon="0.20081">
        <ele>2132.1999511719</ele>
        <time>2014-09-03T07:31:41.000Z</time>
      </trkpt>
      <trkpt lat="42.89252" lon="0.20077">
        <ele>2132.1999511719</ele>
        <time>2014-09-03T07:31:45.000Z</time>
      </trkpt>
      <trkpt lat="42.89269" lon="0.20069">
        <ele>2131</ele>
        <time>2014-09-03T07:32:05.000Z</time>
      </trkpt>
      <trkpt lat="42.8927" lon="0.20068">
        <ele>2131</ele>
        <time>2014-09-03T07:32:07.000Z</time>
      </trkpt>
      <trkpt lat="42.89275" lon="0.20045">
        <ele>2128.3999023438</ele>
        <time>2014-09-03T07:32:33.000Z</time>
      </trkpt>
      <trkpt lat="42.89274" lon="0.20023">
        <ele>2125.1999511719</ele>
        <time>2014-09-03T07:33:19.000Z</time>
      </trkpt>
      <trkpt lat="42.89279" lon="0.20045">
        <ele>2127.8000488281</ele>
        <time>2014-09-03T07:34:14.000Z</time>
      </trkpt>
      <trkpt lat="42.89272" lon="0.20068">
        <ele>2130.8000488281</ele>
        <time>2014-09-03T07:34:36.000Z</time>
      </trkpt>
      <trkpt lat="42.89258" lon="0.20082">
        <ele>2132</ele>
        <time>2014-09-03T07:35:06.000Z</time>
      </trkpt>
      <trkpt lat="42.8924" lon="0.20084">
        <ele>2132.1999511719</ele>
        <time>2014-09-03T07:35:28.000Z</time>
      </trkpt>
      <trkpt lat="42.89236" lon="0.20087">
        <ele>2132.1999511719</ele>
        <time>2014-09-03T07:35:33.000Z</time>
      </trkpt>
      <trkpt lat="42.8923" lon="0.20079">
        <ele>2132.3999023438</ele>
        <time>2014-09-03T07:35:43.000Z</time>
      </trkpt>
      <trkpt lat="42.89215" lon="0.20064">
        <ele>2133</ele>
        <time>2014-09-03T07:36:02.000Z</time>
      </trkpt>
      <trkpt lat="42.892" lon="0.20054">
        <ele>2133.3999023438</ele>
        <time>2014-09-03T07:36:29.000Z</time>
      </trkpt>
      <trkpt lat="42.89193" lon="0.20036">
        <ele>2133</ele>
        <time>2014-09-03T07:36:55.000Z</time>
      </trkpt>
      <trkpt lat="42.89193" lon="0.2003">
        <ele>2132.3999023438</ele>
        <time>2014-09-03T07:37:00.000Z</time>
      </trkpt>
      <trkpt lat="42.89191" lon="0.20006">
        <ele>2130.3999023438</ele>
        <time>2014-09-03T07:37:17.000Z</time>
      </trkpt>
      <trkpt lat="42.89179" lon="0.19988">
        <ele>2129.1999511719</ele>
        <time>2014-09-03T07:37:37.000Z</time>
      </trkpt>
      <trkpt lat="42.89163" lon="0.19975">
        <ele>2126.3999023438</ele>
        <time>2014-09-03T07:37:56.000Z</time>
      </trkpt>
      <trkpt lat="42.89155" lon="0.19965">
        <ele>2124.6000976562</ele>
        <time>2014-09-03T07:38:05.000Z</time>
      </trkpt>
      <trkpt lat="42.89148" lon="0.19967">
        <ele>2123.6000976562</ele>
        <time>2014-09-03T07:38:26.000Z</time>
      </trkpt>
      <trkpt lat="42.8913" lon="0.19968">
        <ele>2120.8000488281</ele>
        <time>2014-09-03T07:38:43.000Z</time>
      </trkpt>
      <trkpt lat="42.89115" lon="0.19961">
        <ele>2117.8000488281</ele>
        <time>2014-09-03T07:38:57.000Z</time>
      </trkpt>
      <trkpt lat="42.89116" lon="0.19945">
        <ele>2117.1999511719</ele>
        <time>2014-09-03T07:39:40.000Z</time>
      </trkpt>
      <trkpt lat="42.89124" lon="0.19941">
        <ele>2118.1999511719</ele>
        <time>2014-09-03T07:39:49.000Z</time>
      </trkpt>
      <trkpt lat="42.89129" lon="0.19939">
        <ele>2119</ele>
        <time>2014-09-03T07:39:56.000Z</time>
      </trkpt>
      <trkpt lat="42.89134" lon="0.19936">
        <ele>2119.6000976562</ele>
        <time>2014-09-03T07:40:22.000Z</time>
      </trkpt>
      <trkpt lat="42.89136" lon="0.19916">
        <ele>2117.8000488281</ele>
        <time>2014-09-03T07:40:48.000Z</time>
      </trkpt>
      <trkpt lat="42.89133" lon="0.19922">
        <ele>2118.8000488281</ele>
        <time>2014-09-03T07:42:33.000Z</time>
      </trkpt>
      <trkpt lat="42.89127" lon="0.19942">
        <ele>2119</ele>
        <time>2014-09-03T07:42:56.000Z</time>
      </trkpt>
      <trkpt lat="42.89113" lon="0.19944">
        <ele>2116.8000488281</ele>
        <time>2014-09-03T07:43:42.000Z</time>
      </trkpt>
      <trkpt lat="42.89115" lon="0.19963">
        <ele>2118.1999511719</ele>
        <time>2014-09-03T07:44:42.000Z</time>
      </trkpt>
      <trkpt lat="42.8913" lon="0.19969">
        <ele>2121</ele>
        <time>2014-09-03T07:44:55.000Z</time>
      </trkpt>
      <trkpt lat="42.89149" lon="0.19963">
        <ele>2123.3999023438</ele>
        <time>2014-09-03T07:45:10.000Z</time>
      </trkpt>
      <trkpt lat="42.89159" lon="0.19961">
        <ele>2124.8000488281</ele>
        <time>2014-09-03T07:45:19.000Z</time>
      </trkpt>
      <trkpt lat="42.89167" lon="0.1994">
        <ele>2123</ele>
        <time>2014-09-03T07:45:44.000Z</time>
      </trkpt>
      <trkpt lat="42.89177" lon="0.1992">
        <ele>2119</ele>
        <time>2014-09-03T07:46:07.000Z</time>
      </trkpt>
      <trkpt lat="42.89182" lon="0.19918">
        <ele>2118.1999511719</ele>
        <time>2014-09-03T07:46:13.000Z</time>
      </trkpt>
      <trkpt lat="42.89184" lon="0.19914">
        <ele>2117.3999023438</ele>
        <time>2014-09-03T07:46:16.000Z</time>
      </trkpt>
      <trkpt lat="42.89186" lon="0.19913">
        <ele>2117</ele>
        <time>2014-09-03T07:46:18.000Z</time>
      </trkpt>
      <trkpt lat="42.89191" lon="0.19907">
        <ele>2115.6000976562</ele>
        <time>2014-09-03T07:46:23.000Z</time>
      </trkpt>
      <trkpt lat="42.89203" lon="0.19904">
        <ele>2113.3999023438</ele>
        <time>2014-09-03T07:46:43.000Z</time>
      </trkpt>
      <trkpt lat="42.89205" lon="0.19904">
        <ele>2113.1999511719</ele>
        <time>2014-09-03T07:46:45.000Z</time>
      </trkpt>
      <trkpt lat="42.89211" lon="0.19902">
        <ele>2111.6000976562</ele>
        <time>2014-09-03T07:46:50.000Z</time>
      </trkpt>
      <trkpt lat="42.89214" lon="0.19897">
        <ele>2110</ele>
        <time>2014-09-03T07:46:53.000Z</time>
      </trkpt>
      <trkpt lat="42.89213" lon="0.19889">
        <ele>2108</ele>
        <time>2014-09-03T07:46:57.000Z</time>
      </trkpt>
      <trkpt lat="42.89215" lon="0.19865">
        <ele>2103.6000976562</ele>
        <time>2014-09-03T07:47:15.000Z</time>
      </trkpt>
      <trkpt lat="42.89225" lon="0.19846">
        <ele>2100.1999511719</ele>
        <time>2014-09-03T07:47:35.000Z</time>
      </trkpt>
      <trkpt lat="42.89235" lon="0.19829">
        <ele>2095</ele>
        <time>2014-09-03T07:47:53.000Z</time>
      </trkpt>
      <trkpt lat="42.89245" lon="0.19806">
        <ele>2089.3999023438</ele>
        <time>2014-09-03T07:48:07.000Z</time>
      </trkpt>
      <trkpt lat="42.89254" lon="0.1979">
        <ele>2086</ele>
        <time>2014-09-03T07:48:18.000Z</time>
      </trkpt>
      <trkpt lat="42.89258" lon="0.19787">
        <ele>2085.6000976562</ele>
        <time>2014-09-03T07:48:22.000Z</time>
      </trkpt>
      <trkpt lat="42.89265" lon="0.19781">
        <ele>2084.6000976562</ele>
        <time>2014-09-03T07:48:31.000Z</time>
      </trkpt>
      <trkpt lat="42.89275" lon="0.19762">
        <ele>2084.6000976562</ele>
        <time>2014-09-03T07:48:48.000Z</time>
      </trkpt>
      <trkpt lat="42.89277" lon="0.19756">
        <ele>2085</ele>
        <time>2014-09-03T07:48:59.000Z</time>
      </trkpt>
      <trkpt lat="42.89275" lon="0.19765">
        <ele>2084.1999511719</ele>
        <time>2014-09-03T07:56:10.000Z</time>
      </trkpt>
      <trkpt lat="42.89287" lon="0.19756">
        <ele>2082.6000976562</ele>
        <time>2014-09-03T07:56:25.000Z</time>
      </trkpt>
      <trkpt lat="42.89301" lon="0.1974">
        <ele>2079.3999023438</ele>
        <time>2014-09-03T07:56:43.000Z</time>
      </trkpt>
      <trkpt lat="42.89317" lon="0.19749">
        <ele>2074</ele>
        <time>2014-09-03T07:57:02.000Z</time>
      </trkpt>
      <trkpt lat="42.89321" lon="0.19749">
        <ele>2072.6000976562</ele>
        <time>2014-09-03T07:57:07.000Z</time>
      </trkpt>
      <trkpt lat="42.89324" lon="0.19749">
        <ele>2071.6000976562</ele>
        <time>2014-09-03T07:57:12.000Z</time>
      </trkpt>
      <trkpt lat="42.8933" lon="0.19738">
        <ele>2069.3999023438</ele>
        <time>2014-09-03T07:57:35.000Z</time>
      </trkpt>
      <trkpt lat="42.89349" lon="0.19742">
        <ele>2063.3999023438</ele>
        <time>2014-09-03T07:57:52.000Z</time>
      </trkpt>
      <trkpt lat="42.89358" lon="0.19739">
        <ele>2061</ele>
        <time>2014-09-03T07:57:59.000Z</time>
      </trkpt>
      <trkpt lat="42.89369" lon="0.19729">
        <ele>2059</ele>
        <time>2014-09-03T07:58:13.000Z</time>
      </trkpt>
      <trkpt lat="42.89378" lon="0.19728">
        <ele>2057.6000976562</ele>
        <time>2014-09-03T07:58:21.000Z</time>
      </trkpt>
      <trkpt lat="42.89393" lon="0.1972">
        <ele>2056</ele>
        <time>2014-09-03T07:58:45.000Z</time>
      </trkpt>
      <trkpt lat="42.89405" lon="0.19712">
        <ele>2055.1999511719</ele>
        <time>2014-09-03T07:59:31.000Z</time>
      </trkpt>
      <trkpt lat="42.89417" lon="0.19728">
        <ele>2051</ele>
        <time>2014-09-03T07:59:57.000Z</time>
      </trkpt>
      <trkpt lat="42.89434" lon="0.19738">
        <ele>2049.6000976562</ele>
        <time>2014-09-03T08:00:14.000Z</time>
      </trkpt>
      <trkpt lat="42.89447" lon="0.19755">
        <ele>2048.1999511719</ele>
        <time>2014-09-03T08:00:34.000Z</time>
      </trkpt>
      <trkpt lat="42.89457" lon="0.19773">
        <ele>2046.8000488281</ele>
        <time>2014-09-03T08:00:56.000Z</time>
      </trkpt>
      <trkpt lat="42.89473" lon="0.19784">
        <ele>2046.4000244141</ele>
        <time>2014-09-03T08:01:12.000Z</time>
      </trkpt>
      <trkpt lat="42.89475" lon="0.19786">
        <ele>2046.1999511719</ele>
        <time>2014-09-03T08:01:15.000Z</time>
      </trkpt>
      <trkpt lat="42.89479" lon="0.19788">
        <ele>2046.1999511719</ele>
        <time>2014-09-03T08:01:19.000Z</time>
      </trkpt>
      <trkpt lat="42.89486" lon="0.19802">
        <ele>2045</ele>
        <time>2014-09-03T08:01:30.000Z</time>
      </trkpt>
      <trkpt lat="42.89487" lon="0.19805">
        <ele>2044.5999755859</ele>
        <time>2014-09-03T08:01:33.000Z</time>
      </trkpt>
      <trkpt lat="42.89502" lon="0.19817">
        <ele>2044</ele>
        <time>2014-09-03T08:01:56.000Z</time>
      </trkpt>
      <trkpt lat="42.8952" lon="0.19823">
        <ele>2044.5999755859</ele>
        <time>2014-09-03T08:02:17.000Z</time>
      </trkpt>
      <trkpt lat="42.89535" lon="0.19834">
        <ele>2044.4000244141</ele>
        <time>2014-09-03T08:02:39.000Z</time>
      </trkpt>
      <trkpt lat="42.89552" lon="0.19844">
        <ele>2044.4000244141</ele>
        <time>2014-09-03T08:02:59.000Z</time>
      </trkpt>
      <trkpt lat="42.89568" lon="0.19855">
        <ele>2044.4000244141</ele>
        <time>2014-09-03T08:03:22.000Z</time>
      </trkpt>
      <trkpt lat="42.89585" lon="0.19856">
        <ele>2047.5999755859</ele>
        <time>2014-09-03T08:03:41.000Z</time>
      </trkpt>
      <trkpt lat="42.89593" lon="0.19864">
        <ele>2047</ele>
        <time>2014-09-03T08:03:51.000Z</time>
      </trkpt>
      <trkpt lat="42.89603" lon="0.19872">
        <ele>2046.4000244141</ele>
        <time>2014-09-03T08:04:02.000Z</time>
      </trkpt>
      <trkpt lat="42.89616" lon="0.19889">
        <ele>2044.8000488281</ele>
        <time>2014-09-03T08:04:21.000Z</time>
      </trkpt>
      <trkpt lat="42.89626" lon="0.1991">
        <ele>2041.8000488281</ele>
        <time>2014-09-03T08:04:41.000Z</time>
      </trkpt>
      <trkpt lat="42.89633" lon="0.19933">
        <ele>2040.1999511719</ele>
        <time>2014-09-03T08:05:01.000Z</time>
      </trkpt>
      <trkpt lat="42.89644" lon="0.19952">
        <ele>2039.1999511719</ele>
        <time>2014-09-03T08:05:19.000Z</time>
      </trkpt>
      <trkpt lat="42.89646" lon="0.19961">
        <ele>2039</ele>
        <time>2014-09-03T08:05:25.000Z</time>
      </trkpt>
      <trkpt lat="42.8965" lon="0.19983">
        <ele>2035.4000244141</ele>
        <time>2014-09-03T08:05:44.000Z</time>
      </trkpt>
      <trkpt lat="42.89655" lon="0.19994">
        <ele>2033.4000244141</ele>
        <time>2014-09-03T08:05:53.000Z</time>
      </trkpt>
      <trkpt lat="42.8965" lon="0.20001">
        <ele>2032.1999511719</ele>
        <time>2014-09-03T08:06:00.000Z</time>
      </trkpt>
      <trkpt lat="42.89642" lon="0.20015">
        <ele>2030.4000244141</ele>
        <time>2014-09-03T08:06:12.000Z</time>
      </trkpt>
      <trkpt lat="42.89628" lon="0.20031">
        <ele>2032.4000244141</ele>
        <time>2014-09-03T08:06:28.000Z</time>
      </trkpt>
      <trkpt lat="42.89627" lon="0.20032">
        <ele>2032.5999755859</ele>
        <time>2014-09-03T08:06:29.000Z</time>
      </trkpt>
      <trkpt lat="42.89612" lon="0.20048">
        <ele>2034.5999755859</ele>
        <time>2014-09-03T08:06:49.000Z</time>
      </trkpt>
      <trkpt lat="42.89622" lon="0.20036">
        <ele>2033.5999755859</ele>
        <time>2014-09-03T08:07:53.000Z</time>
      </trkpt>
      <trkpt lat="42.89634" lon="0.20019">
        <ele>2031.5999755859</ele>
        <time>2014-09-03T08:08:08.000Z</time>
      </trkpt>
      <trkpt lat="42.89641" lon="0.2001">
        <ele>2031</ele>
        <time>2014-09-03T08:08:17.000Z</time>
      </trkpt>
      <trkpt lat="42.89654" lon="0.19995">
        <ele>2033</ele>
        <time>2014-09-03T08:09:08.000Z</time>
      </trkpt>
      <trkpt lat="42.89655" lon="0.20013">
        <ele>2030</ele>
        <time>2014-09-03T08:09:35.000Z</time>
      </trkpt>
      <trkpt lat="42.89661" lon="0.20029">
        <ele>2027.1999511719</ele>
        <time>2014-09-03T08:09:49.000Z</time>
      </trkpt>
      <trkpt lat="42.89663" lon="0.20031">
        <ele>2026.8000488281</ele>
        <time>2014-09-03T08:09:52.000Z</time>
      </trkpt>
      <trkpt lat="42.89663" lon="0.20034">
        <ele>2026.1999511719</ele>
        <time>2014-09-03T08:09:55.000Z</time>
      </trkpt>
      <trkpt lat="42.89674" lon="0.2004">
        <ele>2024.4000244141</ele>
        <time>2014-09-03T08:10:14.000Z</time>
      </trkpt>
      <trkpt lat="42.89682" lon="0.20029">
        <ele>2023.8000488281</ele>
        <time>2014-09-03T08:10:20.000Z</time>
      </trkpt>
      <trkpt lat="42.89692" lon="0.20025">
        <ele>2021</ele>
        <time>2014-09-03T08:10:26.000Z</time>
      </trkpt>
      <trkpt lat="42.89698" lon="0.20022">
        <ele>2019.5999755859</ele>
        <time>2014-09-03T08:10:30.000Z</time>
      </trkpt>
      <trkpt lat="42.89699" lon="0.20022">
        <ele>2019.4000244141</ele>
        <time>2014-09-03T08:10:31.000Z</time>
      </trkpt>
      <trkpt lat="42.89707" lon="0.20017">
        <ele>2017.4000244141</ele>
        <time>2014-09-03T08:10:40.000Z</time>
      </trkpt>
      <trkpt lat="42.89713" lon="0.20015">
        <ele>2015.5999755859</ele>
        <time>2014-09-03T08:10:46.000Z</time>
      </trkpt>
      <trkpt lat="42.89723" lon="0.20014">
        <ele>2012.4000244141</ele>
        <time>2014-09-03T08:10:56.000Z</time>
      </trkpt>
      <trkpt lat="42.89739" lon="0.20006">
        <ele>2013.5999755859</ele>
        <time>2014-09-03T08:11:10.000Z</time>
      </trkpt>
      <trkpt lat="42.89748" lon="0.20008">
        <ele>2011.8000488281</ele>
        <time>2014-09-03T08:11:18.000Z</time>
      </trkpt>
      <trkpt lat="42.89753" lon="0.20012">
        <ele>2009.8000488281</ele>
        <time>2014-09-03T08:11:23.000Z</time>
      </trkpt>
      <trkpt lat="42.89765" lon="0.20028">
        <ele>2002.4000244141</ele>
        <time>2014-09-03T08:11:42.000Z</time>
      </trkpt>
      <trkpt lat="42.89779" lon="0.20036">
        <ele>1998.1999511719</ele>
        <time>2014-09-03T08:11:55.000Z</time>
      </trkpt>
      <trkpt lat="42.89791" lon="0.20044">
        <ele>1994.4000244141</ele>
        <time>2014-09-03T08:12:05.000Z</time>
      </trkpt>
      <trkpt lat="42.89808" lon="0.20051">
        <ele>1991</ele>
        <time>2014-09-03T08:12:15.000Z</time>
      </trkpt>
      <trkpt lat="42.89827" lon="0.20056">
        <ele>1987.8000488281</ele>
        <time>2014-09-03T08:12:27.000Z</time>
      </trkpt>
      <trkpt lat="42.89844" lon="0.20062">
        <ele>1985.5999755859</ele>
        <time>2014-09-03T08:12:37.000Z</time>
      </trkpt>
      <trkpt lat="42.8986" lon="0.20065">
        <ele>1988</ele>
        <time>2014-09-03T08:12:47.000Z</time>
      </trkpt>
      <trkpt lat="42.89866" lon="0.20059">
        <ele>1989.1999511719</ele>
        <time>2014-09-03T08:13:05.000Z</time>
      </trkpt>
      <trkpt lat="42.89878" lon="0.20073">
        <ele>1986.8000488281</ele>
        <time>2014-09-03T08:13:30.000Z</time>
      </trkpt>
      <trkpt lat="42.89874" lon="0.20097">
        <ele>1979.4000244141</ele>
        <time>2014-09-03T08:13:51.000Z</time>
      </trkpt>
      <trkpt lat="42.89867" lon="0.20119">
        <ele>1970</ele>
        <time>2014-09-03T08:14:13.000Z</time>
      </trkpt>
      <trkpt lat="42.89857" lon="0.20138">
        <ele>1962.4000244141</ele>
        <time>2014-09-03T08:14:40.000Z</time>
      </trkpt>
      <trkpt lat="42.89859" lon="0.20163">
        <ele>1959.1999511719</ele>
        <time>2014-09-03T08:14:59.000Z</time>
      </trkpt>
      <trkpt lat="42.89864" lon="0.20184">
        <ele>1957.8000488281</ele>
        <time>2014-09-03T08:15:12.000Z</time>
      </trkpt>
      <trkpt lat="42.89871" lon="0.20192">
        <ele>1957.5999755859</ele>
        <time>2014-09-03T08:15:18.000Z</time>
      </trkpt>
      <trkpt lat="42.89885" lon="0.20207">
        <ele>1957</ele>
        <time>2014-09-03T08:15:31.000Z</time>
      </trkpt>
      <trkpt lat="42.89897" lon="0.20228">
        <ele>1953.5999755859</ele>
        <time>2014-09-03T08:15:45.000Z</time>
      </trkpt>
      <trkpt lat="42.89912" lon="0.20244">
        <ele>1951</ele>
        <time>2014-09-03T08:16:00.000Z</time>
      </trkpt>
      <trkpt lat="42.89919" lon="0.20253">
        <ele>1949.1999511719</ele>
        <time>2014-09-03T08:16:07.000Z</time>
      </trkpt>
      <trkpt lat="42.89936" lon="0.20265">
        <ele>1948.1999511719</ele>
        <time>2014-09-03T08:16:20.000Z</time>
      </trkpt>
      <trkpt lat="42.89947" lon="0.20285">
        <ele>1945</ele>
        <time>2014-09-03T08:16:31.000Z</time>
      </trkpt>
      <trkpt lat="42.89954" lon="0.20307">
        <ele>1940.5999755859</ele>
        <time>2014-09-03T08:16:42.000Z</time>
      </trkpt>
      <trkpt lat="42.89956" lon="0.20332">
        <ele>1935.4000244141</ele>
        <time>2014-09-03T08:16:53.000Z</time>
      </trkpt>
      <trkpt lat="42.89956" lon="0.20337">
        <ele>1934.5999755859</ele>
        <time>2014-09-03T08:16:56.000Z</time>
      </trkpt>
      <trkpt lat="42.89961" lon="0.20361">
        <ele>1930.5999755859</ele>
        <time>2014-09-03T08:17:09.000Z</time>
      </trkpt>
      <trkpt lat="42.89962" lon="0.20366">
        <ele>1930</ele>
        <time>2014-09-03T08:17:12.000Z</time>
      </trkpt>
      <trkpt lat="42.89969" lon="0.20384">
        <ele>1926.5999755859</ele>
        <time>2014-09-03T08:17:22.000Z</time>
      </trkpt>
      <trkpt lat="42.89971" lon="0.20387">
        <ele>1925.8000488281</ele>
        <time>2014-09-03T08:17:24.000Z</time>
      </trkpt>
      <trkpt lat="42.89972" lon="0.20398">
        <ele>1922.1999511719</ele>
        <time>2014-09-03T08:17:31.000Z</time>
      </trkpt>
      <trkpt lat="42.89986" lon="0.20416">
        <ele>1917.1999511719</ele>
        <time>2014-09-03T08:17:44.000Z</time>
      </trkpt>
      <trkpt lat="42.89991" lon="0.20426">
        <ele>1914.4000244141</ele>
        <time>2014-09-03T08:17:51.000Z</time>
      </trkpt>
      <trkpt lat="42.89995" lon="0.20432">
        <ele>1912.8000488281</ele>
        <time>2014-09-03T08:17:56.000Z</time>
      </trkpt>
      <trkpt lat="42.89996" lon="0.20433">
        <ele>1912.5999755859</ele>
        <time>2014-09-03T08:17:58.000Z</time>
      </trkpt>
      <trkpt lat="42.90013" lon="0.20431">
        <ele>1913.5999755859</ele>
        <time>2014-09-03T08:18:15.000Z</time>
      </trkpt>
      <trkpt lat="42.90014" lon="0.20431">
        <ele>1913.5999755859</ele>
        <time>2014-09-03T08:18:16.000Z</time>
      </trkpt>
      <trkpt lat="42.90016" lon="0.20431">
        <ele>1913.5999755859</ele>
        <time>2014-09-03T08:18:18.000Z</time>
      </trkpt>
      <trkpt lat="42.90018" lon="0.20434">
        <ele>1913</ele>
        <time>2014-09-03T08:18:22.000Z</time>
      </trkpt>
      <trkpt lat="42.90021" lon="0.20435">
        <ele>1912.8000488281</ele>
        <time>2014-09-03T08:18:25.000Z</time>
      </trkpt>
      <trkpt lat="42.90035" lon="0.20445">
        <ele>1910</ele>
        <time>2014-09-03T08:18:41.000Z</time>
      </trkpt>
      <trkpt lat="42.90038" lon="0.20451">
        <ele>1908.1999511719</ele>
        <time>2014-09-03T08:18:45.000Z</time>
      </trkpt>
      <trkpt lat="42.90039" lon="0.20456">
        <ele>1906.5999755859</ele>
        <time>2014-09-03T08:18:48.000Z</time>
      </trkpt>
      <trkpt lat="42.90052" lon="0.20473">
        <ele>1901.5999755859</ele>
        <time>2014-09-03T08:19:06.000Z</time>
      </trkpt>
      <trkpt lat="42.90057" lon="0.20487">
        <ele>1897.4000244141</ele>
        <time>2014-09-03T08:19:15.000Z</time>
      </trkpt>
      <trkpt lat="42.9007" lon="0.20503">
        <ele>1892.8000488281</ele>
        <time>2014-09-03T08:19:28.000Z</time>
      </trkpt>
      <trkpt lat="42.90079" lon="0.20525">
        <ele>1886</ele>
        <time>2014-09-03T08:19:37.000Z</time>
      </trkpt>
      <trkpt lat="42.90089" lon="0.20543">
        <ele>1880.5999755859</ele>
        <time>2014-09-03T08:19:46.000Z</time>
      </trkpt>
      <trkpt lat="42.90095" lon="0.20554">
        <ele>1878.1999511719</ele>
        <time>2014-09-03T08:19:51.000Z</time>
      </trkpt>
      <trkpt lat="42.90104" lon="0.20578">
        <ele>1873.4000244141</ele>
        <time>2014-09-03T08:19:59.000Z</time>
      </trkpt>
      <trkpt lat="42.90111" lon="0.20602">
        <ele>1868.5999755859</ele>
        <time>2014-09-03T08:20:07.000Z</time>
      </trkpt>
      <trkpt lat="42.9012" lon="0.20625">
        <ele>1863.8000488281</ele>
        <time>2014-09-03T08:20:15.000Z</time>
      </trkpt>
      <trkpt lat="42.90126" lon="0.2065">
        <ele>1856.4000244141</ele>
        <time>2014-09-03T08:20:23.000Z</time>
      </trkpt>
      <trkpt lat="42.90136" lon="0.2067">
        <ele>1850.1999511719</ele>
        <time>2014-09-03T08:20:31.000Z</time>
      </trkpt>
      <trkpt lat="42.90146" lon="0.2069">
        <ele>1845.4000244141</ele>
        <time>2014-09-03T08:20:38.000Z</time>
      </trkpt>
      <trkpt lat="42.90153" lon="0.20713">
        <ele>1841.5999755859</ele>
        <time>2014-09-03T08:20:45.000Z</time>
      </trkpt>
      <trkpt lat="42.90164" lon="0.2073">
        <ele>1835.5999755859</ele>
        <time>2014-09-03T08:20:52.000Z</time>
      </trkpt>
      <trkpt lat="42.90168" lon="0.20734">
        <ele>1833.8000488281</ele>
        <time>2014-09-03T08:20:57.000Z</time>
      </trkpt>
      <trkpt lat="42.90182" lon="0.20744">
        <ele>1828.4000244141</ele>
        <time>2014-09-03T08:21:41.000Z</time>
      </trkpt>
      <trkpt lat="42.90175" lon="0.2076">
        <ele>1826.1999511719</ele>
        <time>2014-09-03T08:22:04.000Z</time>
      </trkpt>
      <trkpt lat="42.90171" lon="0.20764">
        <ele>1826</ele>
        <time>2014-09-03T08:22:09.000Z</time>
      </trkpt>
      <trkpt lat="42.90169" lon="0.20768">
        <ele>1825.4000244141</ele>
        <time>2014-09-03T08:22:14.000Z</time>
      </trkpt>
      <trkpt lat="42.90175" lon="0.20787">
        <ele>1819.8000488281</ele>
        <time>2014-09-03T08:22:36.000Z</time>
      </trkpt>
      <trkpt lat="42.9019" lon="0.20798">
        <ele>1813.4000244141</ele>
        <time>2014-09-03T08:22:58.000Z</time>
      </trkpt>
      <trkpt lat="42.90191" lon="0.20798">
        <ele>1813.4000244141</ele>
        <time>2014-09-03T08:22:59.000Z</time>
      </trkpt>
      <trkpt lat="42.90208" lon="0.20802">
        <ele>1807.8000488281</ele>
        <time>2014-09-03T08:23:32.000Z</time>
      </trkpt>
      <trkpt lat="42.9022" lon="0.20819">
        <ele>1799</ele>
        <time>2014-09-03T08:24:07.000Z</time>
      </trkpt>
      <trkpt lat="42.90227" lon="0.20842">
        <ele>1789.1999511719</ele>
        <time>2014-09-03T08:24:32.000Z</time>
      </trkpt>
      <trkpt lat="42.90243" lon="0.2084">
        <ele>1786.1999511719</ele>
        <time>2014-09-03T08:24:58.000Z</time>
      </trkpt>
      <trkpt lat="42.90256" lon="0.20831">
        <ele>1786.8000488281</ele>
        <time>2014-09-03T08:25:25.000Z</time>
      </trkpt>
      <trkpt lat="42.90269" lon="0.20842">
        <ele>1780.1999511719</ele>
        <time>2014-09-03T08:26:26.000Z</time>
      </trkpt>
      <trkpt lat="42.90277" lon="0.20843">
        <ele>1778.1999511719</ele>
        <time>2014-09-03T08:26:43.000Z</time>
      </trkpt>
      <trkpt lat="42.90289" lon="0.20853">
        <ele>1772.1999511719</ele>
        <time>2014-09-03T08:27:11.000Z</time>
      </trkpt>
      <trkpt lat="42.90302" lon="0.20862">
        <ele>1766.4000244141</ele>
        <time>2014-09-03T08:27:31.000Z</time>
      </trkpt>
      <trkpt lat="42.90305" lon="0.20861">
        <ele>1766.1999511719</ele>
        <time>2014-09-03T08:27:33.000Z</time>
      </trkpt>
      <trkpt lat="42.90311" lon="0.20865">
        <ele>1763.5999755859</ele>
        <time>2014-09-03T08:27:40.000Z</time>
      </trkpt>
      <trkpt lat="42.90312" lon="0.20867">
        <ele>1762.5999755859</ele>
        <time>2014-09-03T08:27:42.000Z</time>
      </trkpt>
      <trkpt lat="42.90327" lon="0.20879">
        <ele>1755.4000244141</ele>
        <time>2014-09-03T08:28:05.000Z</time>
      </trkpt>
      <trkpt lat="42.90343" lon="0.20889">
        <ele>1750.5999755859</ele>
        <time>2014-09-03T08:28:28.000Z</time>
      </trkpt>
      <trkpt lat="42.9036" lon="0.20899">
        <ele>1744.5999755859</ele>
        <time>2014-09-03T08:28:49.000Z</time>
      </trkpt>
      <trkpt lat="42.90368" lon="0.20903">
        <ele>1742.5999755859</ele>
        <time>2014-09-03T08:28:58.000Z</time>
      </trkpt>
      <trkpt lat="42.90376" lon="0.20909">
        <ele>1739.8000488281</ele>
        <time>2014-09-03T08:29:09.000Z</time>
      </trkpt>
      <trkpt lat="42.90376" lon="0.2091">
        <ele>1739.5999755859</ele>
        <time>2014-09-03T08:29:10.000Z</time>
      </trkpt>
      <trkpt lat="42.90391" lon="0.20923">
        <ele>1734</ele>
        <time>2014-09-03T08:29:32.000Z</time>
      </trkpt>
      <trkpt lat="42.90406" lon="0.20936">
        <ele>1728.1999511719</ele>
        <time>2014-09-03T08:29:54.000Z</time>
      </trkpt>
      <trkpt lat="42.90416" lon="0.20941">
        <ele>1726</ele>
        <time>2014-09-03T08:30:04.000Z</time>
      </trkpt>
      <trkpt lat="42.90422" lon="0.20946">
        <ele>1723.5999755859</ele>
        <time>2014-09-03T08:30:13.000Z</time>
      </trkpt>
      <trkpt lat="42.9044" lon="0.20952">
        <ele>1715</ele>
        <time>2014-09-03T08:30:31.000Z</time>
      </trkpt>
      <trkpt lat="42.90447" lon="0.20957">
        <ele>1710.4000244141</ele>
        <time>2014-09-03T08:30:39.000Z</time>
      </trkpt>
      <trkpt lat="42.9045" lon="0.20967">
        <ele>1706.1999511719</ele>
        <time>2014-09-03T08:30:49.000Z</time>
      </trkpt>
      <trkpt lat="42.90458" lon="0.2096">
        <ele>1704.8000488281</ele>
        <time>2014-09-03T08:31:25.000Z</time>
      </trkpt>
      <trkpt lat="42.90467" lon="0.20944">
        <ele>1707.1999511719</ele>
        <time>2014-09-03T08:31:54.000Z</time>
      </trkpt>
      <trkpt lat="42.90478" lon="0.20956">
        <ele>1698.1999511719</ele>
        <time>2014-09-03T08:32:26.000Z</time>
      </trkpt>
      <trkpt lat="42.90495" lon="0.20956">
        <ele>1691.5999755859</ele>
        <time>2014-09-03T08:32:53.000Z</time>
      </trkpt>
      <trkpt lat="42.90509" lon="0.20939">
        <ele>1692.1999511719</ele>
        <time>2014-09-03T08:33:12.000Z</time>
      </trkpt>
      <trkpt lat="42.90519" lon="0.2092">
        <ele>1693.4000244141</ele>
        <time>2014-09-03T08:33:41.000Z</time>
      </trkpt>
      <trkpt lat="42.90525" lon="0.20917">
        <ele>1691</ele>
        <time>2014-09-03T08:33:49.000Z</time>
      </trkpt>
      <trkpt lat="42.90527" lon="0.20916">
        <ele>1690.5999755859</ele>
        <time>2014-09-03T08:33:51.000Z</time>
      </trkpt>
      <trkpt lat="42.9053" lon="0.20915">
        <ele>1689.1999511719</ele>
        <time>2014-09-03T08:33:55.000Z</time>
      </trkpt>
      <trkpt lat="42.90546" lon="0.20911">
        <ele>1682.1999511719</ele>
        <time>2014-09-03T08:34:17.000Z</time>
      </trkpt>
      <trkpt lat="42.90564" lon="0.20908">
        <ele>1674.1999511719</ele>
        <time>2014-09-03T08:34:43.000Z</time>
      </trkpt>
      <trkpt lat="42.90566" lon="0.20926">
        <ele>1666.8000488281</ele>
        <time>2014-09-03T08:35:08.000Z</time>
      </trkpt>
      <trkpt lat="42.90558" lon="0.20948">
        <ele>1663.5999755859</ele>
        <time>2014-09-03T08:35:31.000Z</time>
      </trkpt>
      <trkpt lat="42.90554" lon="0.20959">
        <ele>1661.8000488281</ele>
        <time>2014-09-03T08:35:41.000Z</time>
      </trkpt>
      <trkpt lat="42.90553" lon="0.20984">
        <ele>1656.8000488281</ele>
        <time>2014-09-03T08:36:01.000Z</time>
      </trkpt>
      <trkpt lat="42.90549" lon="0.21009">
        <ele>1653.1999511719</ele>
        <time>2014-09-03T08:36:24.000Z</time>
      </trkpt>
      <trkpt lat="42.90549" lon="0.21015">
        <ele>1652</ele>
        <time>2014-09-03T08:36:31.000Z</time>
      </trkpt>
      <trkpt lat="42.9056" lon="0.21031">
        <ele>1642.4000244141</ele>
        <time>2014-09-03T08:37:08.000Z</time>
      </trkpt>
      <trkpt lat="42.90568" lon="0.21053">
        <ele>1634.5999755859</ele>
        <time>2014-09-03T08:37:28.000Z</time>
      </trkpt>
      <trkpt lat="42.90574" lon="0.21076">
        <ele>1631.1999511719</ele>
        <time>2014-09-03T08:37:47.000Z</time>
      </trkpt>
      <trkpt lat="42.90584" lon="0.21096">
        <ele>1626</ele>
        <time>2014-09-03T08:38:16.000Z</time>
      </trkpt>
      <trkpt lat="42.90589" lon="0.21097">
        <ele>1623.5999755859</ele>
        <time>2014-09-03T08:38:21.000Z</time>
      </trkpt>
      <trkpt lat="42.90607" lon="0.21099">
        <ele>1619.5999755859</ele>
        <time>2014-09-03T08:38:38.000Z</time>
      </trkpt>
      <trkpt lat="42.90613" lon="0.21103">
        <ele>1618.4000244141</ele>
        <time>2014-09-03T08:38:44.000Z</time>
      </trkpt>
      <trkpt lat="42.90618" lon="0.21113">
        <ele>1617</ele>
        <time>2014-09-03T08:38:53.000Z</time>
      </trkpt>
      <trkpt lat="42.90626" lon="0.21116">
        <ele>1615.1999511719</ele>
        <time>2014-09-03T08:39:00.000Z</time>
      </trkpt>
      <trkpt lat="42.90644" lon="0.21117">
        <ele>1611.4000244141</ele>
        <time>2014-09-03T08:39:14.000Z</time>
      </trkpt>
      <trkpt lat="42.90654" lon="0.2112">
        <ele>1609.4000244141</ele>
        <time>2014-09-03T08:39:21.000Z</time>
      </trkpt>
      <trkpt lat="42.90659" lon="0.21121">
        <ele>1608.1999511719</ele>
        <time>2014-09-03T08:39:25.000Z</time>
      </trkpt>
      <trkpt lat="42.90677" lon="0.21121">
        <ele>1605</ele>
        <time>2014-09-03T08:39:38.000Z</time>
      </trkpt>
      <trkpt lat="42.90687" lon="0.21118">
        <ele>1604.1999511719</ele>
        <time>2014-09-03T08:39:46.000Z</time>
      </trkpt>
      <trkpt lat="42.90698" lon="0.21121">
        <ele>1603</ele>
        <time>2014-09-03T08:39:58.000Z</time>
      </trkpt>
      <trkpt lat="42.90709" lon="0.21137">
        <ele>1601.4000244141</ele>
        <time>2014-09-03T08:40:14.000Z</time>
      </trkpt>
      <trkpt lat="42.90711" lon="0.21146">
        <ele>1601.1999511719</ele>
        <time>2014-09-03T08:40:21.000Z</time>
      </trkpt>
      <trkpt lat="42.90712" lon="0.21146">
        <ele>1601.1999511719</ele>
        <time>2014-09-03T08:40:53.000Z</time>
      </trkpt>
      <trkpt lat="42.9072" lon="0.21162">
        <ele>1600</ele>
        <time>2014-09-03T08:41:10.000Z</time>
      </trkpt>
      <trkpt lat="42.90723" lon="0.21169">
        <ele>1599.8000488281</ele>
        <time>2014-09-03T08:41:15.000Z</time>
      </trkpt>
      <trkpt lat="42.90723" lon="0.21175">
        <ele>1599.5999755859</ele>
        <time>2014-09-03T08:41:19.000Z</time>
      </trkpt>
      <trkpt lat="42.90732" lon="0.21196">
        <ele>1599.5999755859</ele>
        <time>2014-09-03T08:41:36.000Z</time>
      </trkpt>
      <trkpt lat="42.90737" lon="0.21203">
        <ele>1599.1999511719</ele>
        <time>2014-09-03T08:41:43.000Z</time>
      </trkpt>
      <trkpt lat="42.90732" lon="0.21209">
        <ele>1600.5999755859</ele>
        <time>2014-09-03T08:41:53.000Z</time>
      </trkpt>
      <trkpt lat="42.90745" lon="0.21213">
        <ele>1598.5999755859</ele>
        <time>2014-09-03T08:42:31.000Z</time>
      </trkpt>
      <trkpt lat="42.90747" lon="0.21215">
        <ele>1598.5999755859</ele>
        <time>2014-09-03T08:42:33.000Z</time>
      </trkpt>
      <trkpt lat="42.9075" lon="0.2122">
        <ele>1598.5999755859</ele>
        <time>2014-09-03T08:42:36.000Z</time>
      </trkpt>
      <trkpt lat="42.90759" lon="0.21241">
        <ele>1599.5999755859</ele>
        <time>2014-09-03T08:42:48.000Z</time>
      </trkpt>
      <trkpt lat="42.90762" lon="0.21256">
        <ele>1601</ele>
        <time>2014-09-03T08:42:57.000Z</time>
      </trkpt>
      <trkpt lat="42.90762" lon="0.21258">
        <ele>1601.4000244141</ele>
        <time>2014-09-03T08:42:58.000Z</time>
      </trkpt>
      <trkpt lat="42.90764" lon="0.21272">
        <ele>1602.5999755859</ele>
        <time>2014-09-03T08:43:08.000Z</time>
      </trkpt>
      <trkpt lat="42.90767" lon="0.21278">
        <ele>1602.5999755859</ele>
        <time>2014-09-03T08:43:13.000Z</time>
      </trkpt>
      <trkpt lat="42.90779" lon="0.21284">
        <ele>1600.4000244141</ele>
        <time>2014-09-03T08:43:24.000Z</time>
      </trkpt>
      <trkpt lat="42.90784" lon="0.21289">
        <ele>1599.5999755859</ele>
        <time>2014-09-03T08:43:30.000Z</time>
      </trkpt>
      <trkpt lat="42.90802" lon="0.21299">
        <ele>1595.8000488281</ele>
        <time>2014-09-03T08:43:42.000Z</time>
      </trkpt>
      <trkpt lat="42.9081" lon="0.21306">
        <ele>1594.4000244141</ele>
        <time>2014-09-03T08:43:47.000Z</time>
      </trkpt>
      <trkpt lat="42.90824" lon="0.21322">
        <ele>1592.1999511719</ele>
        <time>2014-09-03T08:43:55.000Z</time>
      </trkpt>
      <trkpt lat="42.90841" lon="0.21339">
        <ele>1589.5999755859</ele>
        <time>2014-09-03T08:44:03.000Z</time>
      </trkpt>
      <trkpt lat="42.90854" lon="0.21356">
        <ele>1588.4000244141</ele>
        <time>2014-09-03T08:44:10.000Z</time>
      </trkpt>
      <trkpt lat="42.90866" lon="0.21372">
        <ele>1587.8000488281</ele>
        <time>2014-09-03T08:44:18.000Z</time>
      </trkpt>
      <trkpt lat="42.90872" lon="0.21381">
        <ele>1587.4000244141</ele>
        <time>2014-09-03T08:44:23.000Z</time>
      </trkpt>
      <trkpt lat="42.90873" lon="0.21382">
        <ele>1587.1999511719</ele>
        <time>2014-09-03T08:44:24.000Z</time>
      </trkpt>
      <trkpt lat="42.9088" lon="0.21387">
        <ele>1586.1999511719</ele>
        <time>2014-09-03T08:44:32.000Z</time>
      </trkpt>
      <trkpt lat="42.90885" lon="0.21388">
        <ele>1585.4000244141</ele>
        <time>2014-09-03T08:44:36.000Z</time>
      </trkpt>
      <trkpt lat="42.90895" lon="0.21408">
        <ele>1585</ele>
        <time>2014-09-03T08:44:51.000Z</time>
      </trkpt>
      <trkpt lat="42.909" lon="0.21412">
        <ele>1584.4000244141</ele>
        <time>2014-09-03T08:44:55.000Z</time>
      </trkpt>
      <trkpt lat="42.90905" lon="0.21421">
        <ele>1584</ele>
        <time>2014-09-03T08:45:01.000Z</time>
      </trkpt>
      <trkpt lat="42.90915" lon="0.21428">
        <ele>1582.5999755859</ele>
        <time>2014-09-03T08:45:15.000Z</time>
      </trkpt>
      <trkpt lat="42.90931" lon="0.21437">
        <ele>1580.4000244141</ele>
        <time>2014-09-03T08:45:33.000Z</time>
      </trkpt>
      <trkpt lat="42.90943" lon="0.21444">
        <ele>1579</ele>
        <time>2014-09-03T08:45:43.000Z</time>
      </trkpt>
      <trkpt lat="42.90948" lon="0.21447">
        <ele>1578.4000244141</ele>
        <time>2014-09-03T08:45:48.000Z</time>
      </trkpt>
      <trkpt lat="42.90964" lon="0.21461">
        <ele>1577.1999511719</ele>
        <time>2014-09-03T08:46:05.000Z</time>
      </trkpt>
      <trkpt lat="42.90981" lon="0.21474">
        <ele>1577.4000244141</ele>
        <time>2014-09-03T08:46:18.000Z</time>
      </trkpt>
      <trkpt lat="42.90997" lon="0.21485">
        <ele>1577.5999755859</ele>
        <time>2014-09-03T08:46:29.000Z</time>
      </trkpt>
      <trkpt lat="42.91011" lon="0.21502">
        <ele>1580</ele>
        <time>2014-09-03T08:46:39.000Z</time>
      </trkpt>
      <trkpt lat="42.91013" lon="0.21503">
        <ele>1580.4000244141</ele>
        <time>2014-09-03T08:46:40.000Z</time>
      </trkpt>
      <trkpt lat="42.91023" lon="0.21506">
        <ele>1581.5999755859</ele>
        <time>2014-09-03T08:46:46.000Z</time>
      </trkpt>
      <trkpt lat="42.91024" lon="0.21507">
        <ele>1581.8000488281</ele>
        <time>2014-09-03T08:46:47.000Z</time>
      </trkpt>
      <trkpt lat="42.91028" lon="0.21516">
        <ele>1584</ele>
        <time>2014-09-03T08:46:51.000Z</time>
      </trkpt>
      <trkpt lat="42.91029" lon="0.21517">
        <ele>1584.4000244141</ele>
        <time>2014-09-03T08:46:52.000Z</time>
      </trkpt>
      <trkpt lat="42.91042" lon="0.21525">
        <ele>1586.5999755859</ele>
        <time>2014-09-03T08:47:13.000Z</time>
      </trkpt>
      <trkpt lat="42.91049" lon="0.21526">
        <ele>1587.1999511719</ele>
        <time>2014-09-03T08:47:18.000Z</time>
      </trkpt>
      <trkpt lat="42.9105" lon="0.2153">
        <ele>1588.1999511719</ele>
        <time>2014-09-03T08:47:21.000Z</time>
      </trkpt>
      <trkpt lat="42.9105" lon="0.2153">
        <ele>1588</ele>
        <time>2014-09-03T08:47:44.000Z</time>
      </trkpt>
      <trkpt lat="42.91054" lon="0.21531">
        <ele>1588.4000244141</ele>
        <time>2014-09-03T08:48:52.000Z</time>
      </trkpt>
      <trkpt lat="42.91072" lon="0.21529">
        <ele>1588.5999755859</ele>
        <time>2014-09-03T08:49:07.000Z</time>
      </trkpt>
      <trkpt lat="42.91086" lon="0.21514">
        <ele>1584.4000244141</ele>
        <time>2014-09-03T08:49:16.000Z</time>
      </trkpt>
      <trkpt lat="42.91087" lon="0.2151">
        <ele>1583.4000244141</ele>
        <time>2014-09-03T08:49:18.000Z</time>
      </trkpt>
      <trkpt lat="42.91097" lon="0.2149">
        <ele>1577</ele>
        <time>2014-09-03T08:49:30.000Z</time>
      </trkpt>
      <trkpt lat="42.91113" lon="0.21476">
        <ele>1571.4000244141</ele>
        <time>2014-09-03T08:49:38.000Z</time>
      </trkpt>
      <trkpt lat="42.91122" lon="0.21468">
        <ele>1568</ele>
        <time>2014-09-03T08:49:46.000Z</time>
      </trkpt>
      <trkpt lat="42.91127" lon="0.2147">
        <ele>1567.8000488281</ele>
        <time>2014-09-03T08:49:52.000Z</time>
      </trkpt>
      <trkpt lat="42.91142" lon="0.21484">
        <ele>1570.1999511719</ele>
        <time>2014-09-03T08:50:12.000Z</time>
      </trkpt>
      <trkpt lat="42.91157" lon="0.21499">
        <ele>1572.8000488281</ele>
        <time>2014-09-03T08:50:22.000Z</time>
      </trkpt>
      <trkpt lat="42.91173" lon="0.21511">
        <ele>1574.1999511719</ele>
        <time>2014-09-03T08:50:31.000Z</time>
      </trkpt>
      <trkpt lat="42.91179" lon="0.21518">
        <ele>1574.4000244141</ele>
        <time>2014-09-03T08:50:35.000Z</time>
      </trkpt>
      <trkpt lat="42.91187" lon="0.21538">
        <ele>1577.5999755859</ele>
        <time>2014-09-03T08:50:49.000Z</time>
      </trkpt>
      <trkpt lat="42.91202" lon="0.21555">
        <ele>1576.5999755859</ele>
        <time>2014-09-03T08:50:57.000Z</time>
      </trkpt>
      <trkpt lat="42.91219" lon="0.2157">
        <ele>1573.8000488281</ele>
        <time>2014-09-03T08:51:06.000Z</time>
      </trkpt>
      <trkpt lat="42.91237" lon="0.21582">
        <ele>1570</ele>
        <time>2014-09-03T08:51:16.000Z</time>
      </trkpt>
      <trkpt lat="42.91255" lon="0.21591">
        <ele>1565.5999755859</ele>
        <time>2014-09-03T08:51:26.000Z</time>
      </trkpt>
      <trkpt lat="42.91273" lon="0.21599">
        <ele>1564.4000244141</ele>
        <time>2014-09-03T08:51:34.000Z</time>
      </trkpt>
      <trkpt lat="42.9129" lon="0.21611">
        <ele>1564.1999511719</ele>
        <time>2014-09-03T08:51:43.000Z</time>
      </trkpt>
      <trkpt lat="42.91309" lon="0.2162">
        <ele>1563.5999755859</ele>
        <time>2014-09-03T08:51:52.000Z</time>
      </trkpt>
      <trkpt lat="42.91326" lon="0.2163">
        <ele>1562.8000488281</ele>
        <time>2014-09-03T08:52:00.000Z</time>
      </trkpt>
      <trkpt lat="42.91344" lon="0.2164">
        <ele>1561</ele>
        <time>2014-09-03T08:52:09.000Z</time>
      </trkpt>
      <trkpt lat="42.9136" lon="0.21651">
        <ele>1560.5999755859</ele>
        <time>2014-09-03T08:52:17.000Z</time>
      </trkpt>
      <trkpt lat="42.91378" lon="0.2166">
        <ele>1560.4000244141</ele>
        <time>2014-09-03T08:52:25.000Z</time>
      </trkpt>
      <trkpt lat="42.91397" lon="0.21668">
        <ele>1560.5999755859</ele>
        <time>2014-09-03T08:52:34.000Z</time>
      </trkpt>
      <trkpt lat="42.91416" lon="0.21675">
        <ele>1561</ele>
        <time>2014-09-03T08:52:42.000Z</time>
      </trkpt>
      <trkpt lat="42.91435" lon="0.21676">
        <ele>1560.5999755859</ele>
        <time>2014-09-03T08:52:49.000Z</time>
      </trkpt>
      <trkpt lat="42.91453" lon="0.21675">
        <ele>1559.8000488281</ele>
        <time>2014-09-03T08:52:56.000Z</time>
      </trkpt>
      <trkpt lat="42.91472" lon="0.21667">
        <ele>1558.4000244141</ele>
        <time>2014-09-03T08:53:05.000Z</time>
      </trkpt>
      <trkpt lat="42.91475" lon="0.21664">
        <ele>1557.8000488281</ele>
        <time>2014-09-03T08:53:07.000Z</time>
      </trkpt>
      <trkpt lat="42.9149" lon="0.21649">
        <ele>1555.1999511719</ele>
        <time>2014-09-03T08:53:15.000Z</time>
      </trkpt>
      <trkpt lat="42.91504" lon="0.21634">
        <ele>1552.5999755859</ele>
        <time>2014-09-03T08:53:23.000Z</time>
      </trkpt>
      <trkpt lat="42.91519" lon="0.21616">
        <ele>1553</ele>
        <time>2014-09-03T08:53:31.000Z</time>
      </trkpt>
      <trkpt lat="42.91528" lon="0.21592">
        <ele>1556.5999755859</ele>
        <time>2014-09-03T08:53:39.000Z</time>
      </trkpt>
      <trkpt lat="42.91538" lon="0.21569">
        <ele>1558.5999755859</ele>
        <time>2014-09-03T08:53:47.000Z</time>
      </trkpt>
      <trkpt lat="42.91544" lon="0.21545">
        <ele>1557.1999511719</ele>
        <time>2014-09-03T08:53:55.000Z</time>
      </trkpt>
      <trkpt lat="42.9155" lon="0.21522">
        <ele>1561</ele>
        <time>2014-09-03T08:54:03.000Z</time>
      </trkpt>
      <trkpt lat="42.91558" lon="0.21497">
        <ele>1561.5999755859</ele>
        <time>2014-09-03T08:54:12.000Z</time>
      </trkpt>
      <trkpt lat="42.91564" lon="0.21472">
        <ele>1559.8000488281</ele>
        <time>2014-09-03T08:54:21.000Z</time>
      </trkpt>
      <trkpt lat="42.91565" lon="0.21464">
        <ele>1559.5999755859</ele>
        <time>2014-09-03T08:54:25.000Z</time>
      </trkpt>
      <trkpt lat="42.91574" lon="0.21445">
        <ele>1557.5999755859</ele>
        <time>2014-09-03T08:55:22.000Z</time>
      </trkpt>
      <trkpt lat="42.91574" lon="0.21421">
        <ele>1555.8000488281</ele>
        <time>2014-09-03T08:55:41.000Z</time>
      </trkpt>
      <trkpt lat="42.91584" lon="0.21401">
        <ele>1547.8000488281</ele>
        <time>2014-09-03T08:56:00.000Z</time>
      </trkpt>
      <trkpt lat="42.91591" lon="0.21381">
        <ele>1541.8000488281</ele>
        <time>2014-09-03T08:56:35.000Z</time>
      </trkpt>
      <trkpt lat="42.91595" lon="0.21358">
        <ele>1536.4000244141</ele>
        <time>2014-09-03T08:57:04.000Z</time>
      </trkpt>
      <trkpt lat="42.91582" lon="0.21342">
        <ele>1540</ele>
        <time>2014-09-03T08:57:40.000Z</time>
      </trkpt>
      <trkpt lat="42.91585" lon="0.21339">
        <ele>1537</ele>
        <time>2014-09-03T08:57:44.000Z</time>
      </trkpt>
      <trkpt lat="42.91597" lon="0.21324">
        <ele>1528.8000488281</ele>
        <time>2014-09-03T08:58:09.000Z</time>
      </trkpt>
      <trkpt lat="42.9159" lon="0.21317">
        <ele>1529.4000244141</ele>
        <time>2014-09-03T08:58:20.000Z</time>
      </trkpt>
      <trkpt lat="42.91584" lon="0.21297">
        <ele>1529.4000244141</ele>
        <time>2014-09-03T08:58:47.000Z</time>
      </trkpt>
      <trkpt lat="42.91576" lon="0.21289">
        <ele>1532.1999511719</ele>
        <time>2014-09-03T08:58:58.000Z</time>
      </trkpt>
      <trkpt lat="42.91573" lon="0.21284">
        <ele>1532.5999755859</ele>
        <time>2014-09-03T08:59:03.000Z</time>
      </trkpt>
      <trkpt lat="42.91572" lon="0.21283">
        <ele>1532.8000488281</ele>
        <time>2014-09-03T08:59:04.000Z</time>
      </trkpt>
      <trkpt lat="42.91565" lon="0.21276">
        <ele>1534.8000488281</ele>
        <time>2014-09-03T08:59:13.000Z</time>
      </trkpt>
      <trkpt lat="42.91564" lon="0.21265">
        <ele>1532.1999511719</ele>
        <time>2014-09-03T08:59:20.000Z</time>
      </trkpt>
      <trkpt lat="42.91562" lon="0.21256">
        <ele>1530.1999511719</ele>
        <time>2014-09-03T08:59:27.000Z</time>
      </trkpt>
      <trkpt lat="42.91561" lon="0.21246">
        <ele>1526.8000488281</ele>
        <time>2014-09-03T08:59:36.000Z</time>
      </trkpt>
      <trkpt lat="42.91557" lon="0.21232">
        <ele>1524.1999511719</ele>
        <time>2014-09-03T08:59:48.000Z</time>
      </trkpt>
      <trkpt lat="42.9156" lon="0.21225">
        <ele>1519.5999755859</ele>
        <time>2014-09-03T09:00:00.000Z</time>
      </trkpt>
      <trkpt lat="42.91569" lon="0.21223">
        <ele>1512.1999511719</ele>
        <time>2014-09-03T09:00:09.000Z</time>
      </trkpt>
      <trkpt lat="42.91574" lon="0.21216">
        <ele>1506.4000244141</ele>
        <time>2014-09-03T09:00:17.000Z</time>
      </trkpt>
      <trkpt lat="42.91575" lon="0.21212">
        <ele>1503.8000488281</ele>
        <time>2014-09-03T09:00:21.000Z</time>
      </trkpt>
      <trkpt lat="42.91575" lon="0.21212">
        <ele>1503.5999755859</ele>
        <time>2014-09-03T09:00:22.000Z</time>
      </trkpt>
      <trkpt lat="42.91573" lon="0.21204">
        <ele>1503.8000488281</ele>
        <time>2014-09-03T09:00:33.000Z</time>
      </trkpt>
      <trkpt lat="42.91572" lon="0.21207">
        <ele>1505.1999511719</ele>
        <time>2014-09-03T09:00:39.000Z</time>
      </trkpt>
      <trkpt lat="42.9157" lon="0.21184">
        <ele>1501</ele>
        <time>2014-09-03T09:01:13.000Z</time>
      </trkpt>
      <trkpt lat="42.91574" lon="0.21163">
        <ele>1491.8000488281</ele>
        <time>2014-09-03T09:01:51.000Z</time>
      </trkpt>
      <trkpt lat="42.91578" lon="0.21141">
        <ele>1482.8000488281</ele>
        <time>2014-09-03T09:02:26.000Z</time>
      </trkpt>
      <trkpt lat="42.91584" lon="0.21122">
        <ele>1472.4000244141</ele>
        <time>2014-09-03T09:02:57.000Z</time>
      </trkpt>
      <trkpt lat="42.91594" lon="0.21117">
        <ele>1465.1999511719</ele>
        <time>2014-09-03T09:03:11.000Z</time>
      </trkpt>
      <trkpt lat="42.91599" lon="0.21104">
        <ele>1460.1999511719</ele>
        <time>2014-09-03T09:03:25.000Z</time>
      </trkpt>
      <trkpt lat="42.916" lon="0.21097">
        <ele>1458.4000244141</ele>
        <time>2014-09-03T09:03:31.000Z</time>
      </trkpt>
      <trkpt lat="42.91607" lon="0.21076">
        <ele>1451.1999511719</ele>
        <time>2014-09-03T09:03:52.000Z</time>
      </trkpt>
      <trkpt lat="42.91609" lon="0.21051">
        <ele>1445.5999755859</ele>
        <time>2014-09-03T09:04:09.000Z</time>
      </trkpt>
      <trkpt lat="42.91608" lon="0.21027">
        <ele>1445.1999511719</ele>
        <time>2014-09-03T09:04:25.000Z</time>
      </trkpt>
      <trkpt lat="42.91609" lon="0.2102">
        <ele>1445.1999511719</ele>
        <time>2014-09-03T09:04:29.000Z</time>
      </trkpt>
      <trkpt lat="42.91613" lon="0.21014">
        <ele>1444</ele>
        <time>2014-09-03T09:04:34.000Z</time>
      </trkpt>
      <trkpt lat="42.91614" lon="0.21011">
        <ele>1443.5999755859</ele>
        <time>2014-09-03T09:04:36.000Z</time>
      </trkpt>
      <trkpt lat="42.91627" lon="0.20995">
        <ele>1439.1999511719</ele>
        <time>2014-09-03T09:04:56.000Z</time>
      </trkpt>
      <trkpt lat="42.91628" lon="0.20989">
        <ele>1439</ele>
        <time>2014-09-03T09:05:02.000Z</time>
      </trkpt>
      <trkpt lat="42.91634" lon="0.20982">
        <ele>1436.8000488281</ele>
        <time>2014-09-03T09:05:10.000Z</time>
      </trkpt>
      <trkpt lat="42.91648" lon="0.20979">
        <ele>1431.4000244141</ele>
        <time>2014-09-03T09:05:28.000Z</time>
      </trkpt>
      <trkpt lat="42.91652" lon="0.20972">
        <ele>1430</ele>
        <time>2014-09-03T09:05:34.000Z</time>
      </trkpt>
      <trkpt lat="42.91653" lon="0.20965">
        <ele>1429.5999755859</ele>
        <time>2014-09-03T09:05:39.000Z</time>
      </trkpt>
      <trkpt lat="42.91667" lon="0.20953">
        <ele>1424.8000488281</ele>
        <time>2014-09-03T09:06:48.000Z</time>
      </trkpt>
      <trkpt lat="42.91657" lon="0.20931">
        <ele>1430.5999755859</ele>
        <time>2014-09-03T09:06:59.000Z</time>
      </trkpt>
      <trkpt lat="42.91655" lon="0.20925">
        <ele>1431.8000488281</ele>
        <time>2014-09-03T09:07:02.000Z</time>
      </trkpt>
      <trkpt lat="42.91653" lon="0.20919">
        <ele>1433.1999511719</ele>
        <time>2014-09-03T09:07:07.000Z</time>
      </trkpt>
      <trkpt lat="42.9165" lon="0.20914">
        <ele>1434.5999755859</ele>
        <time>2014-09-03T09:07:11.000Z</time>
      </trkpt>
      <trkpt lat="42.91655" lon="0.20906">
        <ele>1434.8000488281</ele>
        <time>2014-09-03T09:07:22.000Z</time>
      </trkpt>
      <trkpt lat="42.91667" lon="0.20923">
        <ele>1429.4000244141</ele>
        <time>2014-09-03T09:07:35.000Z</time>
      </trkpt>
      <trkpt lat="42.91668" lon="0.20928">
        <ele>1428.4000244141</ele>
        <time>2014-09-03T09:07:37.000Z</time>
      </trkpt>
    </trkseg>
  </trk>
</gpx>